<?xml version="1.0" encoding="UTF-8" standalone="no" ?>
<gpx xmlns="http://www.topografix.com/GPX/1/1" xmlns:xsi="http://www.w3.org/2001/XMLSchema-instance" xsi:schemaLocation="http://www.topografix.com/GPX/1/1 http://www.topografix.com/GPX/1/1/gpx.xsd" version="1.1" creator="VisuGPX - https://www.visugpx.com">
  <metadata>
    <name>Le cernon</name>
    <desc><![CDATA[Barraux, Chapareillan, Plateau de la Puce, Bellecombe, source du Cernon.]]></desc>
  </metadata>
  <trk>
    <name><![CDATA[cernon]]></name>
    <desc><![CDATA[<h1>OruxMaps</h1><br /><hr align="center" width="480" style="height: 2px; width: 517px"/><h2>Nom: cernon</h2><br /><p>Temps de départ: 06/14/2014 09:06</p><p>Temps d'arrivée: 06/14/2014 13:13</p><p>Distance: 26,2 km (04:06)</p><p>Temps déplacement: 02:03</p><p>Vitesse moyenne: 6,4 km/h</p><p>Vitesse moyenne: 12,8 km/h</p><p>Vitess Max.: 49,8 km/h</p><p>Altitude minimale: 280 m</p><p>Altitude maximale: 1065 m</p><p>Vitesse d'élévation: 714,3 m/h</p><p>Vitesse de descente: -1908,4 m/h</p><p>Gain Altitude: 1975 m</p><p>Perte Altitude: -1980 m</p><p>Temps d'élévation: 02:45</p><p>Temps de descente: 01:02</p><hr align="center" width="480" style="height: 2px; width: 517px"/>]]></desc>
    <trkseg>
      <trkpt lat="45.42911" lon="5.98396">
        <ele>329</ele>
        <time>2014-06-14T07:06:54Z</time>
      </trkpt>
      <trkpt lat="45.42918" lon="5.9837">
        <ele>330</ele>
        <time>2014-06-14T07:10:01Z</time>
      </trkpt>
      <trkpt lat="45.42929" lon="5.98347">
        <ele>330</ele>
        <time>2014-06-14T07:10:09Z</time>
      </trkpt>
      <trkpt lat="45.42936" lon="5.9832">
        <ele>330</ele>
        <time>2014-06-14T07:10:14Z</time>
      </trkpt>
      <trkpt lat="45.42947" lon="5.98298">
        <ele>330</ele>
        <time>2014-06-14T07:10:19Z</time>
      </trkpt>
      <trkpt lat="45.42961" lon="5.98277">
        <ele>330</ele>
        <time>2014-06-14T07:10:24Z</time>
      </trkpt>
      <trkpt lat="45.42973" lon="5.98253">
        <ele>330</ele>
        <time>2014-06-14T07:10:29Z</time>
      </trkpt>
      <trkpt lat="45.42986" lon="5.98233">
        <ele>329</ele>
        <time>2014-06-14T07:10:34Z</time>
      </trkpt>
      <trkpt lat="45.42997" lon="5.98212">
        <ele>329</ele>
        <time>2014-06-14T07:10:38Z</time>
      </trkpt>
      <trkpt lat="45.43008" lon="5.98188">
        <ele>329</ele>
        <time>2014-06-14T07:10:43Z</time>
      </trkpt>
      <trkpt lat="45.43023" lon="5.98167">
        <ele>329</ele>
        <time>2014-06-14T07:10:48Z</time>
      </trkpt>
      <trkpt lat="45.43037" lon="5.98147">
        <ele>330</ele>
        <time>2014-06-14T07:10:54Z</time>
      </trkpt>
      <trkpt lat="45.43056" lon="5.98148">
        <ele>331</ele>
        <time>2014-06-14T07:11:00Z</time>
      </trkpt>
      <trkpt lat="45.43075" lon="5.98149">
        <ele>331</ele>
        <time>2014-06-14T07:11:05Z</time>
      </trkpt>
      <trkpt lat="45.43094" lon="5.9815">
        <ele>332</ele>
        <time>2014-06-14T07:11:09Z</time>
      </trkpt>
      <trkpt lat="45.43115" lon="5.98149">
        <ele>332</ele>
        <time>2014-06-14T07:11:14Z</time>
      </trkpt>
      <trkpt lat="45.43135" lon="5.98149">
        <ele>332</ele>
        <time>2014-06-14T07:11:19Z</time>
      </trkpt>
      <trkpt lat="45.43147" lon="5.98126">
        <ele>332</ele>
        <time>2014-06-14T07:11:26Z</time>
      </trkpt>
      <trkpt lat="45.43152" lon="5.98098">
        <ele>333</ele>
        <time>2014-06-14T07:11:32Z</time>
      </trkpt>
      <trkpt lat="45.43158" lon="5.98073">
        <ele>335</ele>
        <time>2014-06-14T07:11:39Z</time>
      </trkpt>
      <trkpt lat="45.43167" lon="5.98048">
        <ele>337</ele>
        <time>2014-06-14T07:11:46Z</time>
      </trkpt>
      <trkpt lat="45.43173" lon="5.98021">
        <ele>338</ele>
        <time>2014-06-14T07:11:53Z</time>
      </trkpt>
      <trkpt lat="45.43181" lon="5.97997">
        <ele>340</ele>
        <time>2014-06-14T07:12:00Z</time>
      </trkpt>
      <trkpt lat="45.43188" lon="5.97971">
        <ele>341</ele>
        <time>2014-06-14T07:12:08Z</time>
      </trkpt>
      <trkpt lat="45.43196" lon="5.97945">
        <ele>342</ele>
        <time>2014-06-14T07:12:15Z</time>
      </trkpt>
      <trkpt lat="45.43205" lon="5.97919">
        <ele>343</ele>
        <time>2014-06-14T07:12:23Z</time>
      </trkpt>
      <trkpt lat="45.43214" lon="5.97896">
        <ele>346</ele>
        <time>2014-06-14T07:12:30Z</time>
      </trkpt>
      <trkpt lat="45.43224" lon="5.97874">
        <ele>347</ele>
        <time>2014-06-14T07:12:37Z</time>
      </trkpt>
      <trkpt lat="45.43235" lon="5.9785">
        <ele>348</ele>
        <time>2014-06-14T07:12:44Z</time>
      </trkpt>
      <trkpt lat="45.43245" lon="5.97825">
        <ele>352</ele>
        <time>2014-06-14T07:12:52Z</time>
      </trkpt>
      <trkpt lat="45.43258" lon="5.97803">
        <ele>355</ele>
        <time>2014-06-14T07:13:00Z</time>
      </trkpt>
      <trkpt lat="45.4327" lon="5.97781">
        <ele>356</ele>
        <time>2014-06-14T07:13:09Z</time>
      </trkpt>
      <trkpt lat="45.4328" lon="5.97757">
        <ele>357</ele>
        <time>2014-06-14T07:13:18Z</time>
      </trkpt>
      <trkpt lat="45.43295" lon="5.97741">
        <ele>362</ele>
        <time>2014-06-14T07:13:27Z</time>
      </trkpt>
      <trkpt lat="45.43307" lon="5.9772">
        <ele>363</ele>
        <time>2014-06-14T07:13:35Z</time>
      </trkpt>
      <trkpt lat="45.43325" lon="5.97732">
        <ele>362</ele>
        <time>2014-06-14T07:13:44Z</time>
      </trkpt>
      <trkpt lat="45.43344" lon="5.97738">
        <ele>363</ele>
        <time>2014-06-14T07:13:51Z</time>
      </trkpt>
      <trkpt lat="45.43364" lon="5.97748">
        <ele>364</ele>
        <time>2014-06-14T07:13:56Z</time>
      </trkpt>
      <trkpt lat="45.43384" lon="5.97759">
        <ele>361</ele>
        <time>2014-06-14T07:14:03Z</time>
      </trkpt>
      <trkpt lat="45.43398" lon="5.97776">
        <ele>361</ele>
        <time>2014-06-14T07:14:09Z</time>
      </trkpt>
      <trkpt lat="45.43417" lon="5.97791">
        <ele>362</ele>
        <time>2014-06-14T07:14:15Z</time>
      </trkpt>
      <trkpt lat="45.43434" lon="5.97802">
        <ele>362</ele>
        <time>2014-06-14T07:14:19Z</time>
      </trkpt>
      <trkpt lat="45.43452" lon="5.97824">
        <ele>361</ele>
        <time>2014-06-14T07:14:23Z</time>
      </trkpt>
      <trkpt lat="45.4347" lon="5.97835">
        <ele>358</ele>
        <time>2014-06-14T07:14:26Z</time>
      </trkpt>
      <trkpt lat="45.43488" lon="5.97843">
        <ele>357</ele>
        <time>2014-06-14T07:14:29Z</time>
      </trkpt>
      <trkpt lat="45.4351" lon="5.97843">
        <ele>357</ele>
        <time>2014-06-14T07:14:33Z</time>
      </trkpt>
      <trkpt lat="45.43532" lon="5.97842">
        <ele>357</ele>
        <time>2014-06-14T07:14:38Z</time>
      </trkpt>
      <trkpt lat="45.43551" lon="5.97841">
        <ele>357</ele>
        <time>2014-06-14T07:14:43Z</time>
      </trkpt>
      <trkpt lat="45.43571" lon="5.97846">
        <ele>358</ele>
        <time>2014-06-14T07:14:52Z</time>
      </trkpt>
      <trkpt lat="45.43592" lon="5.97851">
        <ele>358</ele>
        <time>2014-06-14T07:14:59Z</time>
      </trkpt>
      <trkpt lat="45.43612" lon="5.97852">
        <ele>358</ele>
        <time>2014-06-14T07:15:03Z</time>
      </trkpt>
      <trkpt lat="45.43632" lon="5.97856">
        <ele>358</ele>
        <time>2014-06-14T07:15:06Z</time>
      </trkpt>
      <trkpt lat="45.43652" lon="5.9786">
        <ele>358</ele>
        <time>2014-06-14T07:15:11Z</time>
      </trkpt>
      <trkpt lat="45.43671" lon="5.97865">
        <ele>361</ele>
        <time>2014-06-14T07:15:16Z</time>
      </trkpt>
      <trkpt lat="45.43689" lon="5.97871">
        <ele>361</ele>
        <time>2014-06-14T07:15:24Z</time>
      </trkpt>
      <trkpt lat="45.43705" lon="5.97885">
        <ele>361</ele>
        <time>2014-06-14T07:15:31Z</time>
      </trkpt>
      <trkpt lat="45.43723" lon="5.97895">
        <ele>361</ele>
        <time>2014-06-14T07:15:38Z</time>
      </trkpt>
      <trkpt lat="45.43741" lon="5.97906">
        <ele>362</ele>
        <time>2014-06-14T07:15:45Z</time>
      </trkpt>
      <trkpt lat="45.4376" lon="5.97913">
        <ele>363</ele>
        <time>2014-06-14T07:15:51Z</time>
      </trkpt>
      <trkpt lat="45.43777" lon="5.97923">
        <ele>362</ele>
        <time>2014-06-14T07:15:57Z</time>
      </trkpt>
      <trkpt lat="45.43794" lon="5.97932">
        <ele>363</ele>
        <time>2014-06-14T07:16:03Z</time>
      </trkpt>
      <trkpt lat="45.43812" lon="5.9794">
        <ele>363</ele>
        <time>2014-06-14T07:16:11Z</time>
      </trkpt>
      <trkpt lat="45.4383" lon="5.97952">
        <ele>363</ele>
        <time>2014-06-14T07:16:17Z</time>
      </trkpt>
      <trkpt lat="45.43847" lon="5.9796">
        <ele>366</ele>
        <time>2014-06-14T07:16:22Z</time>
      </trkpt>
      <trkpt lat="45.43866" lon="5.97969">
        <ele>366</ele>
        <time>2014-06-14T07:16:28Z</time>
      </trkpt>
      <trkpt lat="45.43886" lon="5.97976">
        <ele>367</ele>
        <time>2014-06-14T07:16:34Z</time>
      </trkpt>
      <trkpt lat="45.43907" lon="5.97988">
        <ele>367</ele>
        <time>2014-06-14T07:16:39Z</time>
      </trkpt>
      <trkpt lat="45.43925" lon="5.98002">
        <ele>365</ele>
        <time>2014-06-14T07:16:44Z</time>
      </trkpt>
      <trkpt lat="45.43944" lon="5.98012">
        <ele>363</ele>
        <time>2014-06-14T07:16:48Z</time>
      </trkpt>
      <trkpt lat="45.43965" lon="5.98015">
        <ele>363</ele>
        <time>2014-06-14T07:16:53Z</time>
      </trkpt>
      <trkpt lat="45.43983" lon="5.98019">
        <ele>363</ele>
        <time>2014-06-14T07:16:57Z</time>
      </trkpt>
      <trkpt lat="45.44003" lon="5.98023">
        <ele>362</ele>
        <time>2014-06-14T07:17:01Z</time>
      </trkpt>
      <trkpt lat="45.44026" lon="5.98028">
        <ele>361</ele>
        <time>2014-06-14T07:17:06Z</time>
      </trkpt>
      <trkpt lat="45.44044" lon="5.98034">
        <ele>361</ele>
        <time>2014-06-14T07:17:10Z</time>
      </trkpt>
      <trkpt lat="45.44066" lon="5.98038">
        <ele>361</ele>
        <time>2014-06-14T07:17:14Z</time>
      </trkpt>
      <trkpt lat="45.44086" lon="5.98034">
        <ele>361</ele>
        <time>2014-06-14T07:17:18Z</time>
      </trkpt>
      <trkpt lat="45.44105" lon="5.98031">
        <ele>361</ele>
        <time>2014-06-14T07:17:22Z</time>
      </trkpt>
      <trkpt lat="45.44122" lon="5.98026">
        <ele>361</ele>
        <time>2014-06-14T07:17:26Z</time>
      </trkpt>
      <trkpt lat="45.44141" lon="5.98023">
        <ele>360</ele>
        <time>2014-06-14T07:17:30Z</time>
      </trkpt>
      <trkpt lat="45.44161" lon="5.9802">
        <ele>360</ele>
        <time>2014-06-14T07:17:34Z</time>
      </trkpt>
      <trkpt lat="45.44183" lon="5.9802">
        <ele>360</ele>
        <time>2014-06-14T07:17:38Z</time>
      </trkpt>
      <trkpt lat="45.44203" lon="5.98024">
        <ele>360</ele>
        <time>2014-06-14T07:17:42Z</time>
      </trkpt>
      <trkpt lat="45.44222" lon="5.98027">
        <ele>359</ele>
        <time>2014-06-14T07:17:46Z</time>
      </trkpt>
      <trkpt lat="45.44244" lon="5.98035">
        <ele>359</ele>
        <time>2014-06-14T07:17:51Z</time>
      </trkpt>
      <trkpt lat="45.44262" lon="5.98041">
        <ele>360</ele>
        <time>2014-06-14T07:17:55Z</time>
      </trkpt>
      <trkpt lat="45.44283" lon="5.9805">
        <ele>360</ele>
        <time>2014-06-14T07:18:00Z</time>
      </trkpt>
      <trkpt lat="45.44301" lon="5.98058">
        <ele>360</ele>
        <time>2014-06-14T07:18:04Z</time>
      </trkpt>
      <trkpt lat="45.4432" lon="5.98065">
        <ele>360</ele>
        <time>2014-06-14T07:18:09Z</time>
      </trkpt>
      <trkpt lat="45.44336" lon="5.98077">
        <ele>362</ele>
        <time>2014-06-14T07:18:15Z</time>
      </trkpt>
      <trkpt lat="45.44355" lon="5.98091">
        <ele>361</ele>
        <time>2014-06-14T07:18:22Z</time>
      </trkpt>
      <trkpt lat="45.44371" lon="5.98107">
        <ele>362</ele>
        <time>2014-06-14T07:18:27Z</time>
      </trkpt>
      <trkpt lat="45.44388" lon="5.98125">
        <ele>362</ele>
        <time>2014-06-14T07:18:33Z</time>
      </trkpt>
      <trkpt lat="45.44405" lon="5.98139">
        <ele>362</ele>
        <time>2014-06-14T07:18:39Z</time>
      </trkpt>
      <trkpt lat="45.44422" lon="5.98154">
        <ele>365</ele>
        <time>2014-06-14T07:18:44Z</time>
      </trkpt>
      <trkpt lat="45.44439" lon="5.98174">
        <ele>362</ele>
        <time>2014-06-14T07:18:50Z</time>
      </trkpt>
      <trkpt lat="45.44454" lon="5.98189">
        <ele>363</ele>
        <time>2014-06-14T07:18:55Z</time>
      </trkpt>
      <trkpt lat="45.44472" lon="5.98205">
        <ele>363</ele>
        <time>2014-06-14T07:19:00Z</time>
      </trkpt>
      <trkpt lat="45.44492" lon="5.98214">
        <ele>363</ele>
        <time>2014-06-14T07:19:05Z</time>
      </trkpt>
      <trkpt lat="45.4451" lon="5.98219">
        <ele>366</ele>
        <time>2014-06-14T07:19:10Z</time>
      </trkpt>
      <trkpt lat="45.44527" lon="5.98238">
        <ele>365</ele>
        <time>2014-06-14T07:19:16Z</time>
      </trkpt>
      <trkpt lat="45.44541" lon="5.98261">
        <ele>361</ele>
        <time>2014-06-14T07:19:21Z</time>
      </trkpt>
      <trkpt lat="45.44558" lon="5.98277">
        <ele>361</ele>
        <time>2014-06-14T07:19:25Z</time>
      </trkpt>
      <trkpt lat="45.44574" lon="5.98291">
        <ele>360</ele>
        <time>2014-06-14T07:19:28Z</time>
      </trkpt>
      <trkpt lat="45.446" lon="5.98307">
        <ele>361</ele>
        <time>2014-06-14T07:19:31Z</time>
      </trkpt>
      <trkpt lat="45.44621" lon="5.9832">
        <ele>361</ele>
        <time>2014-06-14T07:19:34Z</time>
      </trkpt>
      <trkpt lat="45.44643" lon="5.98333">
        <ele>361</ele>
        <time>2014-06-14T07:19:38Z</time>
      </trkpt>
      <trkpt lat="45.44663" lon="5.98344">
        <ele>358</ele>
        <time>2014-06-14T07:19:42Z</time>
      </trkpt>
      <trkpt lat="45.44682" lon="5.98355">
        <ele>361</ele>
        <time>2014-06-14T07:19:46Z</time>
      </trkpt>
      <trkpt lat="45.44701" lon="5.98367">
        <ele>361</ele>
        <time>2014-06-14T07:19:51Z</time>
      </trkpt>
      <trkpt lat="45.44721" lon="5.98373">
        <ele>362</ele>
        <time>2014-06-14T07:19:56Z</time>
      </trkpt>
      <trkpt lat="45.44739" lon="5.98378">
        <ele>362</ele>
        <time>2014-06-14T07:20:02Z</time>
      </trkpt>
      <trkpt lat="45.44757" lon="5.98382">
        <ele>368</ele>
        <time>2014-06-14T07:20:09Z</time>
      </trkpt>
      <trkpt lat="45.44777" lon="5.98384">
        <ele>369</ele>
        <time>2014-06-14T07:20:16Z</time>
      </trkpt>
      <trkpt lat="45.44803" lon="5.98377">
        <ele>371</ele>
        <time>2014-06-14T07:20:28Z</time>
      </trkpt>
      <trkpt lat="45.44829" lon="5.98373">
        <ele>373</ele>
        <time>2014-06-14T07:20:39Z</time>
      </trkpt>
      <trkpt lat="45.44848" lon="5.98379">
        <ele>381</ele>
        <time>2014-06-14T07:20:47Z</time>
      </trkpt>
      <trkpt lat="45.4487" lon="5.98389">
        <ele>383</ele>
        <time>2014-06-14T07:20:56Z</time>
      </trkpt>
      <trkpt lat="45.44886" lon="5.984">
        <ele>384</ele>
        <time>2014-06-14T07:21:04Z</time>
      </trkpt>
      <trkpt lat="45.44905" lon="5.98416">
        <ele>384</ele>
        <time>2014-06-14T07:21:14Z</time>
      </trkpt>
      <trkpt lat="45.44922" lon="5.9843">
        <ele>385</ele>
        <time>2014-06-14T07:21:25Z</time>
      </trkpt>
      <trkpt lat="45.44939" lon="5.98438">
        <ele>386</ele>
        <time>2014-06-14T07:21:34Z</time>
      </trkpt>
      <trkpt lat="45.44958" lon="5.98436">
        <ele>386</ele>
        <time>2014-06-14T07:21:44Z</time>
      </trkpt>
      <trkpt lat="45.44978" lon="5.98434">
        <ele>387</ele>
        <time>2014-06-14T07:21:52Z</time>
      </trkpt>
      <trkpt lat="45.44997" lon="5.98436">
        <ele>387</ele>
        <time>2014-06-14T07:22:00Z</time>
      </trkpt>
      <trkpt lat="45.4502" lon="5.98446">
        <ele>391</ele>
        <time>2014-06-14T07:22:13Z</time>
      </trkpt>
      <trkpt lat="45.45042" lon="5.98445">
        <ele>392</ele>
        <time>2014-06-14T07:22:21Z</time>
      </trkpt>
      <trkpt lat="45.4506" lon="5.98442">
        <ele>393</ele>
        <time>2014-06-14T07:22:26Z</time>
      </trkpt>
      <trkpt lat="45.45079" lon="5.98449">
        <ele>394</ele>
        <time>2014-06-14T07:22:33Z</time>
      </trkpt>
      <trkpt lat="45.45104" lon="5.98458">
        <ele>400</ele>
        <time>2014-06-14T07:22:42Z</time>
      </trkpt>
      <trkpt lat="45.45122" lon="5.98469">
        <ele>401</ele>
        <time>2014-06-14T07:22:55Z</time>
      </trkpt>
      <trkpt lat="45.45143" lon="5.98477">
        <ele>401</ele>
        <time>2014-06-14T07:23:04Z</time>
      </trkpt>
      <trkpt lat="45.45162" lon="5.98483">
        <ele>402</ele>
        <time>2014-06-14T07:23:15Z</time>
      </trkpt>
      <trkpt lat="45.45185" lon="5.9849">
        <ele>406</ele>
        <time>2014-06-14T07:23:30Z</time>
      </trkpt>
      <trkpt lat="45.45202" lon="5.98503">
        <ele>402</ele>
        <time>2014-06-14T07:23:37Z</time>
      </trkpt>
      <trkpt lat="45.45221" lon="5.98511">
        <ele>402</ele>
        <time>2014-06-14T07:23:45Z</time>
      </trkpt>
      <trkpt lat="45.4524" lon="5.98511">
        <ele>403</ele>
        <time>2014-06-14T07:23:54Z</time>
      </trkpt>
      <trkpt lat="45.45259" lon="5.98501">
        <ele>401</ele>
        <time>2014-06-14T07:26:57Z</time>
      </trkpt>
      <trkpt lat="45.4528" lon="5.98498">
        <ele>405</ele>
        <time>2014-06-14T07:27:02Z</time>
      </trkpt>
      <trkpt lat="45.45299" lon="5.98492">
        <ele>403</ele>
        <time>2014-06-14T07:27:07Z</time>
      </trkpt>
      <trkpt lat="45.4532" lon="5.98497">
        <ele>398</ele>
        <time>2014-06-14T07:27:11Z</time>
      </trkpt>
      <trkpt lat="45.4534" lon="5.98501">
        <ele>388</ele>
        <time>2014-06-14T07:27:15Z</time>
      </trkpt>
      <trkpt lat="45.45361" lon="5.98485">
        <ele>391</ele>
        <time>2014-06-14T07:27:21Z</time>
      </trkpt>
      <trkpt lat="45.45372" lon="5.98459">
        <ele>392</ele>
        <time>2014-06-14T07:27:26Z</time>
      </trkpt>
      <trkpt lat="45.45378" lon="5.98435">
        <ele>393</ele>
        <time>2014-06-14T07:27:32Z</time>
      </trkpt>
      <trkpt lat="45.45375" lon="5.98408">
        <ele>403</ele>
        <time>2014-06-14T07:27:43Z</time>
      </trkpt>
      <trkpt lat="45.45376" lon="5.98382">
        <ele>404</ele>
        <time>2014-06-14T07:27:50Z</time>
      </trkpt>
      <trkpt lat="45.45387" lon="5.9836">
        <ele>404</ele>
        <time>2014-06-14T07:27:59Z</time>
      </trkpt>
      <trkpt lat="45.45401" lon="5.98344">
        <ele>401</ele>
        <time>2014-06-14T07:28:10Z</time>
      </trkpt>
      <trkpt lat="45.45414" lon="5.98321">
        <ele>404</ele>
        <time>2014-06-14T07:28:19Z</time>
      </trkpt>
      <trkpt lat="45.45427" lon="5.98297">
        <ele>386</ele>
        <time>2014-06-14T07:28:24Z</time>
      </trkpt>
      <trkpt lat="45.45432" lon="5.98266">
        <ele>389</ele>
        <time>2014-06-14T07:28:28Z</time>
      </trkpt>
      <trkpt lat="45.45438" lon="5.9824">
        <ele>393</ele>
        <time>2014-06-14T07:28:32Z</time>
      </trkpt>
      <trkpt lat="45.45452" lon="5.9822">
        <ele>389</ele>
        <time>2014-06-14T07:28:37Z</time>
      </trkpt>
      <trkpt lat="45.45466" lon="5.98194">
        <ele>388</ele>
        <time>2014-06-14T07:28:41Z</time>
      </trkpt>
      <trkpt lat="45.4548" lon="5.98168">
        <ele>384</ele>
        <time>2014-06-14T07:28:44Z</time>
      </trkpt>
      <trkpt lat="45.45494" lon="5.98151">
        <ele>388</ele>
        <time>2014-06-14T07:28:47Z</time>
      </trkpt>
      <trkpt lat="45.45512" lon="5.98138">
        <ele>373</ele>
        <time>2014-06-14T07:28:51Z</time>
      </trkpt>
      <trkpt lat="45.4553" lon="5.98126">
        <ele>372</ele>
        <time>2014-06-14T07:28:55Z</time>
      </trkpt>
      <trkpt lat="45.45545" lon="5.9811">
        <ele>370</ele>
        <time>2014-06-14T07:28:59Z</time>
      </trkpt>
      <trkpt lat="45.45557" lon="5.98087">
        <ele>368</ele>
        <time>2014-06-14T07:29:04Z</time>
      </trkpt>
      <trkpt lat="45.45573" lon="5.9807">
        <ele>369</ele>
        <time>2014-06-14T07:29:11Z</time>
      </trkpt>
      <trkpt lat="45.45588" lon="5.98093">
        <ele>365</ele>
        <time>2014-06-14T07:29:19Z</time>
      </trkpt>
      <trkpt lat="45.45585" lon="5.98123">
        <ele>369</ele>
        <time>2014-06-14T07:29:23Z</time>
      </trkpt>
      <trkpt lat="45.45576" lon="5.98146">
        <ele>364</ele>
        <time>2014-06-14T07:29:26Z</time>
      </trkpt>
      <trkpt lat="45.45564" lon="5.98167">
        <ele>360</ele>
        <time>2014-06-14T07:29:31Z</time>
      </trkpt>
      <trkpt lat="45.45555" lon="5.98193">
        <ele>362</ele>
        <time>2014-06-14T07:29:37Z</time>
      </trkpt>
      <trkpt lat="45.45544" lon="5.98215">
        <ele>361</ele>
        <time>2014-06-14T07:29:43Z</time>
      </trkpt>
      <trkpt lat="45.45525" lon="5.98229">
        <ele>362</ele>
        <time>2014-06-14T07:29:50Z</time>
      </trkpt>
      <trkpt lat="45.45513" lon="5.98253">
        <ele>358</ele>
        <time>2014-06-14T07:29:54Z</time>
      </trkpt>
      <trkpt lat="45.45504" lon="5.9828">
        <ele>356</ele>
        <time>2014-06-14T07:29:58Z</time>
      </trkpt>
      <trkpt lat="45.45504" lon="5.98314">
        <ele>356</ele>
        <time>2014-06-14T07:30:01Z</time>
      </trkpt>
      <trkpt lat="45.45517" lon="5.98338">
        <ele>354</ele>
        <time>2014-06-14T07:30:04Z</time>
      </trkpt>
      <trkpt lat="45.45535" lon="5.9836">
        <ele>350</ele>
        <time>2014-06-14T07:30:07Z</time>
      </trkpt>
      <trkpt lat="45.45549" lon="5.98388">
        <ele>348</ele>
        <time>2014-06-14T07:30:10Z</time>
      </trkpt>
      <trkpt lat="45.4556" lon="5.98415">
        <ele>344</ele>
        <time>2014-06-14T07:30:13Z</time>
      </trkpt>
      <trkpt lat="45.45569" lon="5.9844">
        <ele>344</ele>
        <time>2014-06-14T07:30:16Z</time>
      </trkpt>
      <trkpt lat="45.45581" lon="5.98468">
        <ele>343</ele>
        <time>2014-06-14T07:30:20Z</time>
      </trkpt>
      <trkpt lat="45.456" lon="5.98477">
        <ele>338</ele>
        <time>2014-06-14T07:30:23Z</time>
      </trkpt>
      <trkpt lat="45.45619" lon="5.98475">
        <ele>339</ele>
        <time>2014-06-14T07:30:26Z</time>
      </trkpt>
      <trkpt lat="45.45637" lon="5.98474">
        <ele>339</ele>
        <time>2014-06-14T07:30:30Z</time>
      </trkpt>
      <trkpt lat="45.45657" lon="5.98481">
        <ele>337</ele>
        <time>2014-06-14T07:30:33Z</time>
      </trkpt>
      <trkpt lat="45.45675" lon="5.98501">
        <ele>330</ele>
        <time>2014-06-14T07:30:36Z</time>
      </trkpt>
      <trkpt lat="45.45691" lon="5.98525">
        <ele>331</ele>
        <time>2014-06-14T07:30:39Z</time>
      </trkpt>
      <trkpt lat="45.45695" lon="5.98557">
        <ele>329</ele>
        <time>2014-06-14T07:30:42Z</time>
      </trkpt>
      <trkpt lat="45.45697" lon="5.9859">
        <ele>324</ele>
        <time>2014-06-14T07:30:45Z</time>
      </trkpt>
      <trkpt lat="45.45706" lon="5.98612">
        <ele>322</ele>
        <time>2014-06-14T07:30:47Z</time>
      </trkpt>
      <trkpt lat="45.45724" lon="5.98637">
        <ele>320</ele>
        <time>2014-06-14T07:30:50Z</time>
      </trkpt>
      <trkpt lat="45.45747" lon="5.98655">
        <ele>315</ele>
        <time>2014-06-14T07:30:53Z</time>
      </trkpt>
      <trkpt lat="45.45764" lon="5.98662">
        <ele>314</ele>
        <time>2014-06-14T07:30:55Z</time>
      </trkpt>
      <trkpt lat="45.45782" lon="5.9867">
        <ele>313</ele>
        <time>2014-06-14T07:30:57Z</time>
      </trkpt>
      <trkpt lat="45.45807" lon="5.98675">
        <ele>314</ele>
        <time>2014-06-14T07:31:00Z</time>
      </trkpt>
      <trkpt lat="45.45836" lon="5.98678">
        <ele>314</ele>
        <time>2014-06-14T07:31:03Z</time>
      </trkpt>
      <trkpt lat="45.45854" lon="5.98686">
        <ele>314</ele>
        <time>2014-06-14T07:31:05Z</time>
      </trkpt>
      <trkpt lat="45.45867" lon="5.98713">
        <ele>313</ele>
        <time>2014-06-14T07:31:08Z</time>
      </trkpt>
      <trkpt lat="45.45875" lon="5.98743">
        <ele>312</ele>
        <time>2014-06-14T07:31:11Z</time>
      </trkpt>
      <trkpt lat="45.45893" lon="5.98765">
        <ele>307</ele>
        <time>2014-06-14T07:31:15Z</time>
      </trkpt>
      <trkpt lat="45.45908" lon="5.9879">
        <ele>307</ele>
        <time>2014-06-14T07:31:19Z</time>
      </trkpt>
      <trkpt lat="45.45921" lon="5.98812">
        <ele>304</ele>
        <time>2014-06-14T07:31:23Z</time>
      </trkpt>
      <trkpt lat="45.45936" lon="5.98835">
        <ele>303</ele>
        <time>2014-06-14T07:31:27Z</time>
      </trkpt>
      <trkpt lat="45.45955" lon="5.98855">
        <ele>302</ele>
        <time>2014-06-14T07:31:31Z</time>
      </trkpt>
      <trkpt lat="45.45976" lon="5.98868">
        <ele>302</ele>
        <time>2014-06-14T07:31:35Z</time>
      </trkpt>
      <trkpt lat="45.45994" lon="5.98878">
        <ele>302</ele>
        <time>2014-06-14T07:31:38Z</time>
      </trkpt>
      <trkpt lat="45.46012" lon="5.98888">
        <ele>300</ele>
        <time>2014-06-14T07:31:41Z</time>
      </trkpt>
      <trkpt lat="45.46029" lon="5.98902">
        <ele>299</ele>
        <time>2014-06-14T07:31:44Z</time>
      </trkpt>
      <trkpt lat="45.46045" lon="5.98916">
        <ele>299</ele>
        <time>2014-06-14T07:31:48Z</time>
      </trkpt>
      <trkpt lat="45.46061" lon="5.9893">
        <ele>298</ele>
        <time>2014-06-14T07:31:52Z</time>
      </trkpt>
      <trkpt lat="45.46081" lon="5.98934">
        <ele>297</ele>
        <time>2014-06-14T07:31:56Z</time>
      </trkpt>
      <trkpt lat="45.46103" lon="5.98931">
        <ele>296</ele>
        <time>2014-06-14T07:32:00Z</time>
      </trkpt>
      <trkpt lat="45.46122" lon="5.98925">
        <ele>295</ele>
        <time>2014-06-14T07:32:04Z</time>
      </trkpt>
      <trkpt lat="45.46144" lon="5.98928">
        <ele>295</ele>
        <time>2014-06-14T07:32:08Z</time>
      </trkpt>
      <trkpt lat="45.46161" lon="5.9894">
        <ele>295</ele>
        <time>2014-06-14T07:32:41Z</time>
      </trkpt>
      <trkpt lat="45.46178" lon="5.98948">
        <ele>293</ele>
        <time>2014-06-14T07:32:46Z</time>
      </trkpt>
      <trkpt lat="45.46194" lon="5.98963">
        <ele>293</ele>
        <time>2014-06-14T07:32:51Z</time>
      </trkpt>
      <trkpt lat="45.46215" lon="5.9897">
        <ele>293</ele>
        <time>2014-06-14T07:33:23Z</time>
      </trkpt>
      <trkpt lat="45.46232" lon="5.98981">
        <ele>292</ele>
        <time>2014-06-14T07:33:27Z</time>
      </trkpt>
      <trkpt lat="45.46249" lon="5.98998">
        <ele>292</ele>
        <time>2014-06-14T07:33:33Z</time>
      </trkpt>
      <trkpt lat="45.46267" lon="5.99013">
        <ele>291</ele>
        <time>2014-06-14T07:33:38Z</time>
      </trkpt>
      <trkpt lat="45.46285" lon="5.99028">
        <ele>291</ele>
        <time>2014-06-14T07:33:43Z</time>
      </trkpt>
      <trkpt lat="45.46306" lon="5.99038">
        <ele>291</ele>
        <time>2014-06-14T07:33:48Z</time>
      </trkpt>
      <trkpt lat="45.46324" lon="5.99042">
        <ele>290</ele>
        <time>2014-06-14T07:33:52Z</time>
      </trkpt>
      <trkpt lat="45.46345" lon="5.9904">
        <ele>289</ele>
        <time>2014-06-14T07:33:57Z</time>
      </trkpt>
      <trkpt lat="45.46366" lon="5.99038">
        <ele>289</ele>
        <time>2014-06-14T07:34:02Z</time>
      </trkpt>
      <trkpt lat="45.46384" lon="5.99033">
        <ele>289</ele>
        <time>2014-06-14T07:34:14Z</time>
      </trkpt>
      <trkpt lat="45.464" lon="5.99017">
        <ele>289</ele>
        <time>2014-06-14T07:34:25Z</time>
      </trkpt>
      <trkpt lat="45.46396" lon="5.98991">
        <ele>289</ele>
        <time>2014-06-14T07:34:30Z</time>
      </trkpt>
      <trkpt lat="45.46394" lon="5.98966">
        <ele>289</ele>
        <time>2014-06-14T07:34:34Z</time>
      </trkpt>
      <trkpt lat="45.46393" lon="5.98939">
        <ele>289</ele>
        <time>2014-06-14T07:34:40Z</time>
      </trkpt>
      <trkpt lat="45.46387" lon="5.9891">
        <ele>289</ele>
        <time>2014-06-14T07:34:46Z</time>
      </trkpt>
      <trkpt lat="45.46383" lon="5.98884">
        <ele>289</ele>
        <time>2014-06-14T07:34:51Z</time>
      </trkpt>
      <trkpt lat="45.46383" lon="5.98858">
        <ele>290</ele>
        <time>2014-06-14T07:34:56Z</time>
      </trkpt>
      <trkpt lat="45.46384" lon="5.98831">
        <ele>291</ele>
        <time>2014-06-14T07:35:01Z</time>
      </trkpt>
      <trkpt lat="45.46382" lon="5.98802">
        <ele>291</ele>
        <time>2014-06-14T07:35:08Z</time>
      </trkpt>
      <trkpt lat="45.46375" lon="5.98773">
        <ele>291</ele>
        <time>2014-06-14T07:35:13Z</time>
      </trkpt>
      <trkpt lat="45.46368" lon="5.98746">
        <ele>294</ele>
        <time>2014-06-14T07:35:18Z</time>
      </trkpt>
      <trkpt lat="45.46361" lon="5.98721">
        <ele>295</ele>
        <time>2014-06-14T07:35:25Z</time>
      </trkpt>
      <trkpt lat="45.46356" lon="5.98696">
        <ele>297</ele>
        <time>2014-06-14T07:35:31Z</time>
      </trkpt>
      <trkpt lat="45.46365" lon="5.98673">
        <ele>297</ele>
        <time>2014-06-14T07:35:40Z</time>
      </trkpt>
      <trkpt lat="45.46387" lon="5.98665">
        <ele>302</ele>
        <time>2014-06-14T07:35:44Z</time>
      </trkpt>
      <trkpt lat="45.46407" lon="5.98661">
        <ele>299</ele>
        <time>2014-06-14T07:35:47Z</time>
      </trkpt>
      <trkpt lat="45.46425" lon="5.98659">
        <ele>296</ele>
        <time>2014-06-14T07:35:51Z</time>
      </trkpt>
      <trkpt lat="45.46443" lon="5.98655">
        <ele>297</ele>
        <time>2014-06-14T07:35:58Z</time>
      </trkpt>
      <trkpt lat="45.46463" lon="5.9865">
        <ele>297</ele>
        <time>2014-06-14T07:36:04Z</time>
      </trkpt>
      <trkpt lat="45.46481" lon="5.98646">
        <ele>296</ele>
        <time>2014-06-14T07:36:09Z</time>
      </trkpt>
      <trkpt lat="45.465" lon="5.98639">
        <ele>296</ele>
        <time>2014-06-14T07:36:14Z</time>
      </trkpt>
      <trkpt lat="45.46521" lon="5.98633">
        <ele>292</ele>
        <time>2014-06-14T07:36:19Z</time>
      </trkpt>
      <trkpt lat="45.46538" lon="5.98615">
        <ele>292</ele>
        <time>2014-06-14T07:36:26Z</time>
      </trkpt>
      <trkpt lat="45.46527" lon="5.98587">
        <ele>294</ele>
        <time>2014-06-14T07:36:37Z</time>
      </trkpt>
      <trkpt lat="45.46518" lon="5.98558">
        <ele>296</ele>
        <time>2014-06-14T07:36:48Z</time>
      </trkpt>
      <trkpt lat="45.4651" lon="5.98524">
        <ele>297</ele>
        <time>2014-06-14T07:37:00Z</time>
      </trkpt>
      <trkpt lat="45.46496" lon="5.98506">
        <ele>301</ele>
        <time>2014-06-14T07:37:12Z</time>
      </trkpt>
      <trkpt lat="45.46479" lon="5.98519">
        <ele>304</ele>
        <time>2014-06-14T07:37:23Z</time>
      </trkpt>
      <trkpt lat="45.46469" lon="5.98541">
        <ele>304</ele>
        <time>2014-06-14T07:37:34Z</time>
      </trkpt>
      <trkpt lat="45.46463" lon="5.98576">
        <ele>304</ele>
        <time>2014-06-14T07:37:51Z</time>
      </trkpt>
      <trkpt lat="45.46448" lon="5.98594">
        <ele>301</ele>
        <time>2014-06-14T07:38:00Z</time>
      </trkpt>
      <trkpt lat="45.46433" lon="5.98568">
        <ele>307</ele>
        <time>2014-06-14T07:38:16Z</time>
      </trkpt>
      <trkpt lat="45.46438" lon="5.98543">
        <ele>307</ele>
        <time>2014-06-14T07:38:25Z</time>
      </trkpt>
      <trkpt lat="45.46439" lon="5.98515">
        <ele>308</ele>
        <time>2014-06-14T07:38:37Z</time>
      </trkpt>
      <trkpt lat="45.46426" lon="5.98495">
        <ele>312</ele>
        <time>2014-06-14T07:38:49Z</time>
      </trkpt>
      <trkpt lat="45.46412" lon="5.98476">
        <ele>317</ele>
        <time>2014-06-14T07:39:04Z</time>
      </trkpt>
      <trkpt lat="45.46393" lon="5.9846">
        <ele>319</ele>
        <time>2014-06-14T07:39:17Z</time>
      </trkpt>
      <trkpt lat="45.46378" lon="5.98445">
        <ele>320</ele>
        <time>2014-06-14T07:39:26Z</time>
      </trkpt>
      <trkpt lat="45.46361" lon="5.98433">
        <ele>322</ele>
        <time>2014-06-14T07:39:37Z</time>
      </trkpt>
      <trkpt lat="45.4634" lon="5.98411">
        <ele>327</ele>
        <time>2014-06-14T07:39:51Z</time>
      </trkpt>
      <trkpt lat="45.46325" lon="5.98396">
        <ele>338</ele>
        <time>2014-06-14T07:40:02Z</time>
      </trkpt>
      <trkpt lat="45.46316" lon="5.9837">
        <ele>342</ele>
        <time>2014-06-14T07:40:22Z</time>
      </trkpt>
      <trkpt lat="45.46308" lon="5.98342">
        <ele>343</ele>
        <time>2014-06-14T07:40:27Z</time>
      </trkpt>
      <trkpt lat="45.46301" lon="5.98317">
        <ele>350</ele>
        <time>2014-06-14T07:40:37Z</time>
      </trkpt>
      <trkpt lat="45.46294" lon="5.98292">
        <ele>353</ele>
        <time>2014-06-14T07:40:50Z</time>
      </trkpt>
      <trkpt lat="45.46288" lon="5.98268">
        <ele>355</ele>
        <time>2014-06-14T07:40:59Z</time>
      </trkpt>
      <trkpt lat="45.46281" lon="5.98243">
        <ele>361</ele>
        <time>2014-06-14T07:41:09Z</time>
      </trkpt>
      <trkpt lat="45.46277" lon="5.98216">
        <ele>361</ele>
        <time>2014-06-14T07:41:19Z</time>
      </trkpt>
      <trkpt lat="45.46277" lon="5.98189">
        <ele>363</ele>
        <time>2014-06-14T07:41:30Z</time>
      </trkpt>
      <trkpt lat="45.46258" lon="5.9818">
        <ele>366</ele>
        <time>2014-06-14T07:41:40Z</time>
      </trkpt>
      <trkpt lat="45.4625" lon="5.98204">
        <ele>381</ele>
        <time>2014-06-14T07:41:49Z</time>
      </trkpt>
      <trkpt lat="45.4625" lon="5.98231">
        <ele>365</ele>
        <time>2014-06-14T07:41:59Z</time>
      </trkpt>
      <trkpt lat="45.46256" lon="5.98257">
        <ele>364</ele>
        <time>2014-06-14T07:42:16Z</time>
      </trkpt>
      <trkpt lat="45.46249" lon="5.98284">
        <ele>379</ele>
        <time>2014-06-14T07:42:26Z</time>
      </trkpt>
      <trkpt lat="45.46244" lon="5.98309">
        <ele>377</ele>
        <time>2014-06-14T07:42:41Z</time>
      </trkpt>
      <trkpt lat="45.46243" lon="5.98336">
        <ele>370</ele>
        <time>2014-06-14T07:42:53Z</time>
      </trkpt>
      <trkpt lat="45.46243" lon="5.98363">
        <ele>372</ele>
        <time>2014-06-14T07:43:08Z</time>
      </trkpt>
      <trkpt lat="45.46231" lon="5.98382">
        <ele>372</ele>
        <time>2014-06-14T07:43:21Z</time>
      </trkpt>
      <trkpt lat="45.46212" lon="5.98386">
        <ele>375</ele>
        <time>2014-06-14T07:43:31Z</time>
      </trkpt>
      <trkpt lat="45.46194" lon="5.98393">
        <ele>379</ele>
        <time>2014-06-14T07:43:42Z</time>
      </trkpt>
      <trkpt lat="45.46176" lon="5.98401">
        <ele>382</ele>
        <time>2014-06-14T07:44:06Z</time>
      </trkpt>
      <trkpt lat="45.46164" lon="5.9842">
        <ele>386</ele>
        <time>2014-06-14T07:44:24Z</time>
      </trkpt>
      <trkpt lat="45.4615" lon="5.9844">
        <ele>387</ele>
        <time>2014-06-14T07:44:39Z</time>
      </trkpt>
      <trkpt lat="45.46135" lon="5.98456">
        <ele>387</ele>
        <time>2014-06-14T07:45:00Z</time>
      </trkpt>
      <trkpt lat="45.46115" lon="5.98473">
        <ele>387</ele>
        <time>2014-06-14T07:45:20Z</time>
      </trkpt>
      <trkpt lat="45.46096" lon="5.98475">
        <ele>389</ele>
        <time>2014-06-14T07:45:40Z</time>
      </trkpt>
      <trkpt lat="45.46074" lon="5.98479">
        <ele>396</ele>
        <time>2014-06-14T07:45:47Z</time>
      </trkpt>
      <trkpt lat="45.46056" lon="5.98489">
        <ele>396</ele>
        <time>2014-06-14T07:45:59Z</time>
      </trkpt>
      <trkpt lat="45.46037" lon="5.98493">
        <ele>398</ele>
        <time>2014-06-14T07:46:08Z</time>
      </trkpt>
      <trkpt lat="45.4602" lon="5.98484">
        <ele>399</ele>
        <time>2014-06-14T07:46:18Z</time>
      </trkpt>
      <trkpt lat="45.46005" lon="5.98468">
        <ele>400</ele>
        <time>2014-06-14T07:46:31Z</time>
      </trkpt>
      <trkpt lat="45.45988" lon="5.98455">
        <ele>398</ele>
        <time>2014-06-14T07:46:44Z</time>
      </trkpt>
      <trkpt lat="45.45973" lon="5.98439">
        <ele>399</ele>
        <time>2014-06-14T07:46:59Z</time>
      </trkpt>
      <trkpt lat="45.45966" lon="5.98415">
        <ele>407</ele>
        <time>2014-06-14T07:47:11Z</time>
      </trkpt>
      <trkpt lat="45.45963" lon="5.98388">
        <ele>408</ele>
        <time>2014-06-14T07:47:24Z</time>
      </trkpt>
      <trkpt lat="45.45965" lon="5.98362">
        <ele>410</ele>
        <time>2014-06-14T07:47:31Z</time>
      </trkpt>
      <trkpt lat="45.45976" lon="5.98342">
        <ele>413</ele>
        <time>2014-06-14T07:47:41Z</time>
      </trkpt>
      <trkpt lat="45.45981" lon="5.98315">
        <ele>422</ele>
        <time>2014-06-14T07:47:51Z</time>
      </trkpt>
      <trkpt lat="45.45988" lon="5.9829">
        <ele>425</ele>
        <time>2014-06-14T07:48:02Z</time>
      </trkpt>
      <trkpt lat="45.45998" lon="5.98267">
        <ele>428</ele>
        <time>2014-06-14T07:48:11Z</time>
      </trkpt>
      <trkpt lat="45.46011" lon="5.98247">
        <ele>432</ele>
        <time>2014-06-14T07:48:19Z</time>
      </trkpt>
      <trkpt lat="45.46021" lon="5.98226">
        <ele>432</ele>
        <time>2014-06-14T07:48:27Z</time>
      </trkpt>
      <trkpt lat="45.46021" lon="5.982">
        <ele>435</ele>
        <time>2014-06-14T07:48:37Z</time>
      </trkpt>
      <trkpt lat="45.46003" lon="5.98197">
        <ele>436</ele>
        <time>2014-06-14T07:48:46Z</time>
      </trkpt>
      <trkpt lat="45.45986" lon="5.98213">
        <ele>439</ele>
        <time>2014-06-14T07:48:59Z</time>
      </trkpt>
      <trkpt lat="45.45969" lon="5.98224">
        <ele>439</ele>
        <time>2014-06-14T07:49:08Z</time>
      </trkpt>
      <trkpt lat="45.45952" lon="5.98235">
        <ele>439</ele>
        <time>2014-06-14T07:49:17Z</time>
      </trkpt>
      <trkpt lat="45.45933" lon="5.98245">
        <ele>437</ele>
        <time>2014-06-14T07:49:29Z</time>
      </trkpt>
      <trkpt lat="45.45923" lon="5.98223">
        <ele>439</ele>
        <time>2014-06-14T07:49:41Z</time>
      </trkpt>
      <trkpt lat="45.45936" lon="5.98206">
        <ele>441</ele>
        <time>2014-06-14T07:49:50Z</time>
      </trkpt>
      <trkpt lat="45.45949" lon="5.98186">
        <ele>443</ele>
        <time>2014-06-14T07:50:02Z</time>
      </trkpt>
      <trkpt lat="45.45957" lon="5.98164">
        <ele>451</ele>
        <time>2014-06-14T07:50:16Z</time>
      </trkpt>
      <trkpt lat="45.45969" lon="5.98141">
        <ele>452</ele>
        <time>2014-06-14T07:50:31Z</time>
      </trkpt>
      <trkpt lat="45.45975" lon="5.98116">
        <ele>454</ele>
        <time>2014-06-14T07:50:43Z</time>
      </trkpt>
      <trkpt lat="45.45984" lon="5.98091">
        <ele>455</ele>
        <time>2014-06-14T07:50:55Z</time>
      </trkpt>
      <trkpt lat="45.45989" lon="5.98067">
        <ele>459</ele>
        <time>2014-06-14T07:51:06Z</time>
      </trkpt>
      <trkpt lat="45.45995" lon="5.98041">
        <ele>461</ele>
        <time>2014-06-14T07:51:20Z</time>
      </trkpt>
      <trkpt lat="45.45998" lon="5.98014">
        <ele>462</ele>
        <time>2014-06-14T07:51:27Z</time>
      </trkpt>
      <trkpt lat="45.45988" lon="5.97994">
        <ele>464</ele>
        <time>2014-06-14T07:51:39Z</time>
      </trkpt>
      <trkpt lat="45.45977" lon="5.97972">
        <ele>466</ele>
        <time>2014-06-14T07:51:50Z</time>
      </trkpt>
      <trkpt lat="45.45969" lon="5.9795">
        <ele>468</ele>
        <time>2014-06-14T07:52:04Z</time>
      </trkpt>
      <trkpt lat="45.4597" lon="5.97924">
        <ele>468</ele>
        <time>2014-06-14T07:52:17Z</time>
      </trkpt>
      <trkpt lat="45.4597" lon="5.97896">
        <ele>474</ele>
        <time>2014-06-14T07:52:31Z</time>
      </trkpt>
      <trkpt lat="45.4597" lon="5.97871">
        <ele>475</ele>
        <time>2014-06-14T07:52:40Z</time>
      </trkpt>
      <trkpt lat="45.45975" lon="5.97844">
        <ele>476</ele>
        <time>2014-06-14T07:52:53Z</time>
      </trkpt>
      <trkpt lat="45.45987" lon="5.97821">
        <ele>478</ele>
        <time>2014-06-14T07:53:01Z</time>
      </trkpt>
      <trkpt lat="45.45995" lon="5.97797">
        <ele>480</ele>
        <time>2014-06-14T07:53:11Z</time>
      </trkpt>
      <trkpt lat="45.46005" lon="5.97775">
        <ele>474</ele>
        <time>2014-06-14T07:53:23Z</time>
      </trkpt>
      <trkpt lat="45.46018" lon="5.97755">
        <ele>475</ele>
        <time>2014-06-14T07:53:35Z</time>
      </trkpt>
      <trkpt lat="45.46032" lon="5.97735">
        <ele>480</ele>
        <time>2014-06-14T07:53:48Z</time>
      </trkpt>
      <trkpt lat="45.46044" lon="5.97715">
        <ele>481</ele>
        <time>2014-06-14T07:53:57Z</time>
      </trkpt>
      <trkpt lat="45.46056" lon="5.97691">
        <ele>482</ele>
        <time>2014-06-14T07:54:06Z</time>
      </trkpt>
      <trkpt lat="45.46063" lon="5.97668">
        <ele>482</ele>
        <time>2014-06-14T07:54:14Z</time>
      </trkpt>
      <trkpt lat="45.46075" lon="5.97648">
        <ele>489</ele>
        <time>2014-06-14T07:54:23Z</time>
      </trkpt>
      <trkpt lat="45.46086" lon="5.97625">
        <ele>486</ele>
        <time>2014-06-14T07:54:35Z</time>
      </trkpt>
      <trkpt lat="45.46097" lon="5.97602">
        <ele>490</ele>
        <time>2014-06-14T07:54:46Z</time>
      </trkpt>
      <trkpt lat="45.46111" lon="5.97585">
        <ele>489</ele>
        <time>2014-06-14T07:54:55Z</time>
      </trkpt>
      <trkpt lat="45.4612" lon="5.9756">
        <ele>499</ele>
        <time>2014-06-14T07:55:06Z</time>
      </trkpt>
      <trkpt lat="45.46131" lon="5.97539">
        <ele>500</ele>
        <time>2014-06-14T07:55:18Z</time>
      </trkpt>
      <trkpt lat="45.46139" lon="5.97515">
        <ele>502</ele>
        <time>2014-06-14T07:55:30Z</time>
      </trkpt>
      <trkpt lat="45.46155" lon="5.97498">
        <ele>508</ele>
        <time>2014-06-14T07:55:42Z</time>
      </trkpt>
      <trkpt lat="45.46171" lon="5.97486">
        <ele>506</ele>
        <time>2014-06-14T07:55:53Z</time>
      </trkpt>
      <trkpt lat="45.46188" lon="5.97477">
        <ele>506</ele>
        <time>2014-06-14T07:56:08Z</time>
      </trkpt>
      <trkpt lat="45.46205" lon="5.97469">
        <ele>506</ele>
        <time>2014-06-14T07:56:21Z</time>
      </trkpt>
      <trkpt lat="45.46222" lon="5.9746">
        <ele>506</ele>
        <time>2014-06-14T07:56:35Z</time>
      </trkpt>
      <trkpt lat="45.4624" lon="5.97449">
        <ele>508</ele>
        <time>2014-06-14T07:56:50Z</time>
      </trkpt>
      <trkpt lat="45.46258" lon="5.97441">
        <ele>506</ele>
        <time>2014-06-14T07:57:03Z</time>
      </trkpt>
      <trkpt lat="45.46274" lon="5.97428">
        <ele>507</ele>
        <time>2014-06-14T07:57:12Z</time>
      </trkpt>
      <trkpt lat="45.46291" lon="5.97419">
        <ele>507</ele>
        <time>2014-06-14T07:57:18Z</time>
      </trkpt>
      <trkpt lat="45.46308" lon="5.97408">
        <ele>517</ele>
        <time>2014-06-14T07:57:28Z</time>
      </trkpt>
      <trkpt lat="45.46322" lon="5.97392">
        <ele>518</ele>
        <time>2014-06-14T07:57:40Z</time>
      </trkpt>
      <trkpt lat="45.46336" lon="5.97373">
        <ele>517</ele>
        <time>2014-06-14T07:57:53Z</time>
      </trkpt>
      <trkpt lat="45.4635" lon="5.97357">
        <ele>518</ele>
        <time>2014-06-14T07:58:04Z</time>
      </trkpt>
      <trkpt lat="45.46363" lon="5.97339">
        <ele>519</ele>
        <time>2014-06-14T07:58:12Z</time>
      </trkpt>
      <trkpt lat="45.46376" lon="5.97318">
        <ele>526</ele>
        <time>2014-06-14T07:58:19Z</time>
      </trkpt>
      <trkpt lat="45.46387" lon="5.97297">
        <ele>527</ele>
        <time>2014-06-14T07:58:30Z</time>
      </trkpt>
      <trkpt lat="45.46399" lon="5.97277">
        <ele>527</ele>
        <time>2014-06-14T07:58:38Z</time>
      </trkpt>
      <trkpt lat="45.46411" lon="5.97255">
        <ele>527</ele>
        <time>2014-06-14T07:58:46Z</time>
      </trkpt>
      <trkpt lat="45.46415" lon="5.9723">
        <ele>535</ele>
        <time>2014-06-14T07:58:58Z</time>
      </trkpt>
      <trkpt lat="45.46431" lon="5.97213">
        <ele>530</ele>
        <time>2014-06-14T07:59:09Z</time>
      </trkpt>
      <trkpt lat="45.46448" lon="5.97223">
        <ele>530</ele>
        <time>2014-06-14T07:59:19Z</time>
      </trkpt>
      <trkpt lat="45.46466" lon="5.97231">
        <ele>529</ele>
        <time>2014-06-14T07:59:28Z</time>
      </trkpt>
      <trkpt lat="45.46485" lon="5.9724">
        <ele>528</ele>
        <time>2014-06-14T07:59:38Z</time>
      </trkpt>
      <trkpt lat="45.46502" lon="5.9725">
        <ele>526</ele>
        <time>2014-06-14T07:59:45Z</time>
      </trkpt>
      <trkpt lat="45.4652" lon="5.97256">
        <ele>527</ele>
        <time>2014-06-14T07:59:53Z</time>
      </trkpt>
      <trkpt lat="45.4654" lon="5.97261">
        <ele>528</ele>
        <time>2014-06-14T08:04:58Z</time>
      </trkpt>
      <trkpt lat="45.4656" lon="5.97266">
        <ele>529</ele>
        <time>2014-06-14T08:05:05Z</time>
      </trkpt>
      <trkpt lat="45.46579" lon="5.97271">
        <ele>530</ele>
        <time>2014-06-14T08:05:11Z</time>
      </trkpt>
      <trkpt lat="45.46599" lon="5.97271">
        <ele>532</ele>
        <time>2014-06-14T08:05:18Z</time>
      </trkpt>
      <trkpt lat="45.46619" lon="5.9727">
        <ele>532</ele>
        <time>2014-06-14T08:05:27Z</time>
      </trkpt>
      <trkpt lat="45.46638" lon="5.97274">
        <ele>532</ele>
        <time>2014-06-14T08:05:33Z</time>
      </trkpt>
      <trkpt lat="45.46652" lon="5.97254">
        <ele>532</ele>
        <time>2014-06-14T08:05:41Z</time>
      </trkpt>
      <trkpt lat="45.46651" lon="5.97224">
        <ele>532</ele>
        <time>2014-06-14T08:05:48Z</time>
      </trkpt>
      <trkpt lat="45.46647" lon="5.97198">
        <ele>532</ele>
        <time>2014-06-14T08:05:54Z</time>
      </trkpt>
      <trkpt lat="45.46642" lon="5.97169">
        <ele>531</ele>
        <time>2014-06-14T08:06:02Z</time>
      </trkpt>
      <trkpt lat="45.46638" lon="5.97142">
        <ele>533</ele>
        <time>2014-06-14T08:06:10Z</time>
      </trkpt>
      <trkpt lat="45.46636" lon="5.97117">
        <ele>534</ele>
        <time>2014-06-14T08:06:18Z</time>
      </trkpt>
      <trkpt lat="45.46632" lon="5.97089">
        <ele>535</ele>
        <time>2014-06-14T08:06:25Z</time>
      </trkpt>
      <trkpt lat="45.46621" lon="5.97067">
        <ele>542</ele>
        <time>2014-06-14T08:06:41Z</time>
      </trkpt>
      <trkpt lat="45.46603" lon="5.9707">
        <ele>543</ele>
        <time>2014-06-14T08:06:52Z</time>
      </trkpt>
      <trkpt lat="45.46584" lon="5.97067">
        <ele>543</ele>
        <time>2014-06-14T08:07:03Z</time>
      </trkpt>
      <trkpt lat="45.46567" lon="5.97057">
        <ele>547</ele>
        <time>2014-06-14T08:07:15Z</time>
      </trkpt>
      <trkpt lat="45.4655" lon="5.97043">
        <ele>549</ele>
        <time>2014-06-14T08:07:27Z</time>
      </trkpt>
      <trkpt lat="45.46537" lon="5.97023">
        <ele>550</ele>
        <time>2014-06-14T08:07:38Z</time>
      </trkpt>
      <trkpt lat="45.46539" lon="5.96996">
        <ele>560</ele>
        <time>2014-06-14T08:07:50Z</time>
      </trkpt>
      <trkpt lat="45.46551" lon="5.96977">
        <ele>561</ele>
        <time>2014-06-14T08:08:05Z</time>
      </trkpt>
      <trkpt lat="45.46566" lon="5.96962">
        <ele>562</ele>
        <time>2014-06-14T08:08:18Z</time>
      </trkpt>
      <trkpt lat="45.46581" lon="5.96947">
        <ele>563</ele>
        <time>2014-06-14T08:08:29Z</time>
      </trkpt>
      <trkpt lat="45.46594" lon="5.96928">
        <ele>561</ele>
        <time>2014-06-14T08:08:44Z</time>
      </trkpt>
      <trkpt lat="45.46606" lon="5.96907">
        <ele>566</ele>
        <time>2014-06-14T08:08:55Z</time>
      </trkpt>
      <trkpt lat="45.46612" lon="5.96882">
        <ele>567</ele>
        <time>2014-06-14T08:09:06Z</time>
      </trkpt>
      <trkpt lat="45.46612" lon="5.96855">
        <ele>569</ele>
        <time>2014-06-14T08:09:18Z</time>
      </trkpt>
      <trkpt lat="45.46608" lon="5.96829">
        <ele>578</ele>
        <time>2014-06-14T08:09:28Z</time>
      </trkpt>
      <trkpt lat="45.46601" lon="5.96805">
        <ele>579</ele>
        <time>2014-06-14T08:09:37Z</time>
      </trkpt>
      <trkpt lat="45.46605" lon="5.96778">
        <ele>582</ele>
        <time>2014-06-14T08:09:51Z</time>
      </trkpt>
      <trkpt lat="45.4662" lon="5.96763">
        <ele>583</ele>
        <time>2014-06-14T08:10:05Z</time>
      </trkpt>
      <trkpt lat="45.46638" lon="5.96753">
        <ele>583</ele>
        <time>2014-06-14T08:10:19Z</time>
      </trkpt>
      <trkpt lat="45.46656" lon="5.96745">
        <ele>591</ele>
        <time>2014-06-14T08:10:31Z</time>
      </trkpt>
      <trkpt lat="45.46676" lon="5.96744">
        <ele>591</ele>
        <time>2014-06-14T08:10:42Z</time>
      </trkpt>
      <trkpt lat="45.46697" lon="5.96739">
        <ele>595</ele>
        <time>2014-06-14T08:10:53Z</time>
      </trkpt>
      <trkpt lat="45.46714" lon="5.96732">
        <ele>597</ele>
        <time>2014-06-14T08:11:00Z</time>
      </trkpt>
      <trkpt lat="45.46732" lon="5.96728">
        <ele>597</ele>
        <time>2014-06-14T08:11:09Z</time>
      </trkpt>
      <trkpt lat="45.46749" lon="5.96739">
        <ele>596</ele>
        <time>2014-06-14T08:11:18Z</time>
      </trkpt>
      <trkpt lat="45.46768" lon="5.9674">
        <ele>599</ele>
        <time>2014-06-14T08:11:30Z</time>
      </trkpt>
      <trkpt lat="45.4678" lon="5.96721">
        <ele>601</ele>
        <time>2014-06-14T08:11:40Z</time>
      </trkpt>
      <trkpt lat="45.46788" lon="5.96697">
        <ele>603</ele>
        <time>2014-06-14T08:11:50Z</time>
      </trkpt>
      <trkpt lat="45.46797" lon="5.96674">
        <ele>604</ele>
        <time>2014-06-14T08:12:00Z</time>
      </trkpt>
      <trkpt lat="45.46804" lon="5.96648">
        <ele>605</ele>
        <time>2014-06-14T08:12:12Z</time>
      </trkpt>
      <trkpt lat="45.46806" lon="5.96621">
        <ele>604</ele>
        <time>2014-06-14T08:12:19Z</time>
      </trkpt>
      <trkpt lat="45.46817" lon="5.96601">
        <ele>603</ele>
        <time>2014-06-14T08:12:25Z</time>
      </trkpt>
      <trkpt lat="45.46831" lon="5.96582">
        <ele>601</ele>
        <time>2014-06-14T08:12:29Z</time>
      </trkpt>
      <trkpt lat="45.46847" lon="5.96557">
        <ele>600</ele>
        <time>2014-06-14T08:12:33Z</time>
      </trkpt>
      <trkpt lat="45.4686" lon="5.96537">
        <ele>599</ele>
        <time>2014-06-14T08:12:36Z</time>
      </trkpt>
      <trkpt lat="45.46873" lon="5.96514">
        <ele>599</ele>
        <time>2014-06-14T08:12:39Z</time>
      </trkpt>
      <trkpt lat="45.46885" lon="5.96492">
        <ele>601</ele>
        <time>2014-06-14T08:12:42Z</time>
      </trkpt>
      <trkpt lat="45.46896" lon="5.96472">
        <ele>601</ele>
        <time>2014-06-14T08:12:46Z</time>
      </trkpt>
      <trkpt lat="45.46905" lon="5.96449">
        <ele>602</ele>
        <time>2014-06-14T08:12:53Z</time>
      </trkpt>
      <trkpt lat="45.4692" lon="5.96423">
        <ele>602</ele>
        <time>2014-06-14T08:13:07Z</time>
      </trkpt>
      <trkpt lat="45.4693" lon="5.96397">
        <ele>606</ele>
        <time>2014-06-14T08:13:19Z</time>
      </trkpt>
      <trkpt lat="45.46938" lon="5.9637">
        <ele>609</ele>
        <time>2014-06-14T08:13:28Z</time>
      </trkpt>
      <trkpt lat="45.46943" lon="5.96332">
        <ele>617</ele>
        <time>2014-06-14T08:13:38Z</time>
      </trkpt>
      <trkpt lat="45.46954" lon="5.96303">
        <ele>618</ele>
        <time>2014-06-14T08:13:54Z</time>
      </trkpt>
      <trkpt lat="45.46966" lon="5.96282">
        <ele>618</ele>
        <time>2014-06-14T08:14:06Z</time>
      </trkpt>
      <trkpt lat="45.46978" lon="5.96259">
        <ele>618</ele>
        <time>2014-06-14T08:14:17Z</time>
      </trkpt>
      <trkpt lat="45.4699" lon="5.96225">
        <ele>623</ele>
        <time>2014-06-14T08:14:31Z</time>
      </trkpt>
      <trkpt lat="45.47002" lon="5.96204">
        <ele>614</ele>
        <time>2014-06-14T08:14:40Z</time>
      </trkpt>
      <trkpt lat="45.47012" lon="5.96181">
        <ele>617</ele>
        <time>2014-06-14T08:14:50Z</time>
      </trkpt>
      <trkpt lat="45.47018" lon="5.96156">
        <ele>624</ele>
        <time>2014-06-14T08:14:59Z</time>
      </trkpt>
      <trkpt lat="45.47027" lon="5.96121">
        <ele>628</ele>
        <time>2014-06-14T08:15:14Z</time>
      </trkpt>
      <trkpt lat="45.47049" lon="5.96098">
        <ele>628</ele>
        <time>2014-06-14T08:15:29Z</time>
      </trkpt>
      <trkpt lat="45.47066" lon="5.96069">
        <ele>641</ele>
        <time>2014-06-14T08:15:45Z</time>
      </trkpt>
      <trkpt lat="45.47076" lon="5.96047">
        <ele>645</ele>
        <time>2014-06-14T08:15:55Z</time>
      </trkpt>
      <trkpt lat="45.47091" lon="5.96031">
        <ele>640</ele>
        <time>2014-06-14T08:16:31Z</time>
      </trkpt>
      <trkpt lat="45.47108" lon="5.96017">
        <ele>641</ele>
        <time>2014-06-14T08:16:41Z</time>
      </trkpt>
      <trkpt lat="45.47125" lon="5.96001">
        <ele>640</ele>
        <time>2014-06-14T08:16:55Z</time>
      </trkpt>
      <trkpt lat="45.47136" lon="5.9598">
        <ele>652</ele>
        <time>2014-06-14T08:17:13Z</time>
      </trkpt>
      <trkpt lat="45.47154" lon="5.95962">
        <ele>652</ele>
        <time>2014-06-14T08:17:30Z</time>
      </trkpt>
      <trkpt lat="45.47169" lon="5.95947">
        <ele>644</ele>
        <time>2014-06-14T08:17:36Z</time>
      </trkpt>
      <trkpt lat="45.47185" lon="5.95929">
        <ele>645</ele>
        <time>2014-06-14T08:17:41Z</time>
      </trkpt>
      <trkpt lat="45.47193" lon="5.95906">
        <ele>654</ele>
        <time>2014-06-14T08:17:45Z</time>
      </trkpt>
      <trkpt lat="45.47205" lon="5.95885">
        <ele>654</ele>
        <time>2014-06-14T08:17:50Z</time>
      </trkpt>
      <trkpt lat="45.47224" lon="5.95873">
        <ele>653</ele>
        <time>2014-06-14T08:18:05Z</time>
      </trkpt>
      <trkpt lat="45.47241" lon="5.95861">
        <ele>653</ele>
        <time>2014-06-14T08:18:22Z</time>
      </trkpt>
      <trkpt lat="45.4726" lon="5.95856">
        <ele>645</ele>
        <time>2014-06-14T08:18:53Z</time>
      </trkpt>
      <trkpt lat="45.47278" lon="5.95864">
        <ele>643</ele>
        <time>2014-06-14T08:19:22Z</time>
      </trkpt>
      <trkpt lat="45.47299" lon="5.95867">
        <ele>641</ele>
        <time>2014-06-14T08:19:34Z</time>
      </trkpt>
      <trkpt lat="45.47324" lon="5.9588">
        <ele>639</ele>
        <time>2014-06-14T08:19:40Z</time>
      </trkpt>
      <trkpt lat="45.47341" lon="5.95869">
        <ele>634</ele>
        <time>2014-06-14T08:19:50Z</time>
      </trkpt>
      <trkpt lat="45.47354" lon="5.95851">
        <ele>635</ele>
        <time>2014-06-14T08:19:58Z</time>
      </trkpt>
      <trkpt lat="45.47362" lon="5.95825">
        <ele>641</ele>
        <time>2014-06-14T08:20:02Z</time>
      </trkpt>
      <trkpt lat="45.47363" lon="5.95799">
        <ele>642</ele>
        <time>2014-06-14T08:20:20Z</time>
      </trkpt>
      <trkpt lat="45.47359" lon="5.95774">
        <ele>645</ele>
        <time>2014-06-14T08:20:36Z</time>
      </trkpt>
      <trkpt lat="45.47364" lon="5.95748">
        <ele>653</ele>
        <time>2014-06-14T08:20:56Z</time>
      </trkpt>
      <trkpt lat="45.47369" lon="5.95722">
        <ele>653</ele>
        <time>2014-06-14T08:21:14Z</time>
      </trkpt>
      <trkpt lat="45.47377" lon="5.95699">
        <ele>653</ele>
        <time>2014-06-14T08:21:39Z</time>
      </trkpt>
      <trkpt lat="45.47392" lon="5.95682">
        <ele>651</ele>
        <time>2014-06-14T08:21:54Z</time>
      </trkpt>
      <trkpt lat="45.47407" lon="5.95662">
        <ele>651</ele>
        <time>2014-06-14T08:22:00Z</time>
      </trkpt>
      <trkpt lat="45.47411" lon="5.95634">
        <ele>660</ele>
        <time>2014-06-14T08:22:05Z</time>
      </trkpt>
      <trkpt lat="45.47417" lon="5.95608">
        <ele>642</ele>
        <time>2014-06-14T08:22:17Z</time>
      </trkpt>
      <trkpt lat="45.47427" lon="5.95586">
        <ele>647</ele>
        <time>2014-06-14T08:22:27Z</time>
      </trkpt>
      <trkpt lat="45.47436" lon="5.95564">
        <ele>651</ele>
        <time>2014-06-14T08:22:51Z</time>
      </trkpt>
      <trkpt lat="45.47441" lon="5.95538">
        <ele>652</ele>
        <time>2014-06-14T08:22:59Z</time>
      </trkpt>
      <trkpt lat="45.47449" lon="5.95514">
        <ele>653</ele>
        <time>2014-06-14T08:23:26Z</time>
      </trkpt>
      <trkpt lat="45.47463" lon="5.95496">
        <ele>661</ele>
        <time>2014-06-14T08:23:44Z</time>
      </trkpt>
      <trkpt lat="45.47477" lon="5.9548">
        <ele>659</ele>
        <time>2014-06-14T08:24:04Z</time>
      </trkpt>
      <trkpt lat="45.47482" lon="5.95455">
        <ele>662</ele>
        <time>2014-06-14T08:24:21Z</time>
      </trkpt>
      <trkpt lat="45.47496" lon="5.95436">
        <ele>662</ele>
        <time>2014-06-14T08:24:29Z</time>
      </trkpt>
      <trkpt lat="45.47506" lon="5.95414">
        <ele>660</ele>
        <time>2014-06-14T08:24:41Z</time>
      </trkpt>
      <trkpt lat="45.47513" lon="5.95389">
        <ele>660</ele>
        <time>2014-06-14T08:24:54Z</time>
      </trkpt>
      <trkpt lat="45.47526" lon="5.95368">
        <ele>662</ele>
        <time>2014-06-14T08:25:04Z</time>
      </trkpt>
      <trkpt lat="45.4754" lon="5.95353">
        <ele>662</ele>
        <time>2014-06-14T08:25:25Z</time>
      </trkpt>
      <trkpt lat="45.47556" lon="5.95337">
        <ele>662</ele>
        <time>2014-06-14T08:25:53Z</time>
      </trkpt>
      <trkpt lat="45.47571" lon="5.95323">
        <ele>672</ele>
        <time>2014-06-14T08:26:22Z</time>
      </trkpt>
      <trkpt lat="45.47591" lon="5.95318">
        <ele>667</ele>
        <time>2014-06-14T08:26:27Z</time>
      </trkpt>
      <trkpt lat="45.47609" lon="5.95309">
        <ele>669</ele>
        <time>2014-06-14T08:27:09Z</time>
      </trkpt>
      <trkpt lat="45.47627" lon="5.95296">
        <ele>670</ele>
        <time>2014-06-14T08:27:34Z</time>
      </trkpt>
      <trkpt lat="45.47648" lon="5.95283">
        <ele>671</ele>
        <time>2014-06-14T08:28:05Z</time>
      </trkpt>
      <trkpt lat="45.47659" lon="5.95263">
        <ele>674</ele>
        <time>2014-06-14T08:28:20Z</time>
      </trkpt>
      <trkpt lat="45.47675" lon="5.95251">
        <ele>670</ele>
        <time>2014-06-14T08:28:33Z</time>
      </trkpt>
      <trkpt lat="45.47687" lon="5.9523">
        <ele>676</ele>
        <time>2014-06-14T08:28:44Z</time>
      </trkpt>
      <trkpt lat="45.47689" lon="5.95203">
        <ele>679</ele>
        <time>2014-06-14T08:29:00Z</time>
      </trkpt>
      <trkpt lat="45.47696" lon="5.9518">
        <ele>682</ele>
        <time>2014-06-14T08:29:14Z</time>
      </trkpt>
      <trkpt lat="45.47706" lon="5.95157">
        <ele>690</ele>
        <time>2014-06-14T08:29:50Z</time>
      </trkpt>
      <trkpt lat="45.47718" lon="5.95137">
        <ele>689</ele>
        <time>2014-06-14T08:30:31Z</time>
      </trkpt>
      <trkpt lat="45.47726" lon="5.95112">
        <ele>690</ele>
        <time>2014-06-14T08:30:49Z</time>
      </trkpt>
      <trkpt lat="45.47733" lon="5.95089">
        <ele>691</ele>
        <time>2014-06-14T08:31:07Z</time>
      </trkpt>
      <trkpt lat="45.47744" lon="5.95109">
        <ele>690</ele>
        <time>2014-06-14T08:32:08Z</time>
      </trkpt>
      <trkpt lat="45.47757" lon="5.95129">
        <ele>682</ele>
        <time>2014-06-14T08:32:33Z</time>
      </trkpt>
      <trkpt lat="45.47768" lon="5.95155">
        <ele>680</ele>
        <time>2014-06-14T08:32:40Z</time>
      </trkpt>
      <trkpt lat="45.47781" lon="5.95175">
        <ele>670</ele>
        <time>2014-06-14T08:32:48Z</time>
      </trkpt>
      <trkpt lat="45.47796" lon="5.95196">
        <ele>668</ele>
        <time>2014-06-14T08:32:54Z</time>
      </trkpt>
      <trkpt lat="45.4781" lon="5.95218">
        <ele>665</ele>
        <time>2014-06-14T08:33:00Z</time>
      </trkpt>
      <trkpt lat="45.47815" lon="5.95246">
        <ele>662</ele>
        <time>2014-06-14T08:33:06Z</time>
      </trkpt>
      <trkpt lat="45.47824" lon="5.95269">
        <ele>653</ele>
        <time>2014-06-14T08:33:14Z</time>
      </trkpt>
      <trkpt lat="45.47837" lon="5.95289">
        <ele>652</ele>
        <time>2014-06-14T08:33:19Z</time>
      </trkpt>
      <trkpt lat="45.47842" lon="5.95321">
        <ele>648</ele>
        <time>2014-06-14T08:33:25Z</time>
      </trkpt>
      <trkpt lat="45.47841" lon="5.95348">
        <ele>642</ele>
        <time>2014-06-14T08:33:28Z</time>
      </trkpt>
      <trkpt lat="45.4784" lon="5.95381">
        <ele>638</ele>
        <time>2014-06-14T08:33:31Z</time>
      </trkpt>
      <trkpt lat="45.47849" lon="5.95406">
        <ele>636</ele>
        <time>2014-06-14T08:33:36Z</time>
      </trkpt>
      <trkpt lat="45.47858" lon="5.95429">
        <ele>629</ele>
        <time>2014-06-14T08:33:40Z</time>
      </trkpt>
      <trkpt lat="45.47866" lon="5.95452">
        <ele>627</ele>
        <time>2014-06-14T08:33:44Z</time>
      </trkpt>
      <trkpt lat="45.47867" lon="5.95484">
        <ele>625</ele>
        <time>2014-06-14T08:33:48Z</time>
      </trkpt>
      <trkpt lat="45.47869" lon="5.9551">
        <ele>617</ele>
        <time>2014-06-14T08:33:52Z</time>
      </trkpt>
      <trkpt lat="45.47882" lon="5.95534">
        <ele>615</ele>
        <time>2014-06-14T08:33:56Z</time>
      </trkpt>
      <trkpt lat="45.47898" lon="5.9552">
        <ele>616</ele>
        <time>2014-06-14T08:34:23Z</time>
      </trkpt>
      <trkpt lat="45.4791" lon="5.95498">
        <ele>621</ele>
        <time>2014-06-14T08:34:30Z</time>
      </trkpt>
      <trkpt lat="45.47921" lon="5.95475">
        <ele>621</ele>
        <time>2014-06-14T08:34:38Z</time>
      </trkpt>
      <trkpt lat="45.47935" lon="5.95456">
        <ele>622</ele>
        <time>2014-06-14T08:34:45Z</time>
      </trkpt>
      <trkpt lat="45.47946" lon="5.95435">
        <ele>623</ele>
        <time>2014-06-14T08:34:55Z</time>
      </trkpt>
      <trkpt lat="45.4796" lon="5.95417">
        <ele>623</ele>
        <time>2014-06-14T08:35:03Z</time>
      </trkpt>
      <trkpt lat="45.47971" lon="5.95397">
        <ele>633</ele>
        <time>2014-06-14T08:35:13Z</time>
      </trkpt>
      <trkpt lat="45.47987" lon="5.95383">
        <ele>633</ele>
        <time>2014-06-14T08:35:25Z</time>
      </trkpt>
      <trkpt lat="45.48004" lon="5.95374">
        <ele>629</ele>
        <time>2014-06-14T08:35:41Z</time>
      </trkpt>
      <trkpt lat="45.48022" lon="5.95371">
        <ele>629</ele>
        <time>2014-06-14T08:35:52Z</time>
      </trkpt>
      <trkpt lat="45.48039" lon="5.95358">
        <ele>629</ele>
        <time>2014-06-14T08:36:01Z</time>
      </trkpt>
      <trkpt lat="45.48047" lon="5.95333">
        <ele>630</ele>
        <time>2014-06-14T08:36:08Z</time>
      </trkpt>
      <trkpt lat="45.48054" lon="5.95308">
        <ele>642</ele>
        <time>2014-06-14T08:36:15Z</time>
      </trkpt>
      <trkpt lat="45.48068" lon="5.95292">
        <ele>643</ele>
        <time>2014-06-14T08:36:30Z</time>
      </trkpt>
      <trkpt lat="45.48087" lon="5.95281">
        <ele>637</ele>
        <time>2014-06-14T08:36:38Z</time>
      </trkpt>
      <trkpt lat="45.48107" lon="5.95278">
        <ele>637</ele>
        <time>2014-06-14T08:36:44Z</time>
      </trkpt>
      <trkpt lat="45.48118" lon="5.95258">
        <ele>637</ele>
        <time>2014-06-14T08:37:00Z</time>
      </trkpt>
      <trkpt lat="45.48116" lon="5.95229">
        <ele>644</ele>
        <time>2014-06-14T08:37:13Z</time>
      </trkpt>
      <trkpt lat="45.48116" lon="5.95203">
        <ele>645</ele>
        <time>2014-06-14T08:37:26Z</time>
      </trkpt>
      <trkpt lat="45.48112" lon="5.95177">
        <ele>646</ele>
        <time>2014-06-14T08:37:38Z</time>
      </trkpt>
      <trkpt lat="45.4812" lon="5.95152">
        <ele>647</ele>
        <time>2014-06-14T08:37:53Z</time>
      </trkpt>
      <trkpt lat="45.48132" lon="5.95133">
        <ele>647</ele>
        <time>2014-06-14T08:38:02Z</time>
      </trkpt>
      <trkpt lat="45.48136" lon="5.95108">
        <ele>647</ele>
        <time>2014-06-14T08:38:16Z</time>
      </trkpt>
      <trkpt lat="45.48137" lon="5.95081">
        <ele>648</ele>
        <time>2014-06-14T08:38:25Z</time>
      </trkpt>
      <trkpt lat="45.48132" lon="5.95055">
        <ele>649</ele>
        <time>2014-06-14T08:38:41Z</time>
      </trkpt>
      <trkpt lat="45.48121" lon="5.95034">
        <ele>649</ele>
        <time>2014-06-14T08:38:58Z</time>
      </trkpt>
      <trkpt lat="45.48118" lon="5.95007">
        <ele>650</ele>
        <time>2014-06-14T08:39:13Z</time>
      </trkpt>
      <trkpt lat="45.48108" lon="5.94984">
        <ele>652</ele>
        <time>2014-06-14T08:39:22Z</time>
      </trkpt>
      <trkpt lat="45.48108" lon="5.94957">
        <ele>652</ele>
        <time>2014-06-14T08:39:31Z</time>
      </trkpt>
      <trkpt lat="45.481" lon="5.94932">
        <ele>654</ele>
        <time>2014-06-14T08:39:38Z</time>
      </trkpt>
      <trkpt lat="45.48094" lon="5.94905">
        <ele>656</ele>
        <time>2014-06-14T08:39:46Z</time>
      </trkpt>
      <trkpt lat="45.48089" lon="5.94879">
        <ele>657</ele>
        <time>2014-06-14T08:39:55Z</time>
      </trkpt>
      <trkpt lat="45.48079" lon="5.94857">
        <ele>662</ele>
        <time>2014-06-14T08:40:06Z</time>
      </trkpt>
      <trkpt lat="45.4808" lon="5.94831">
        <ele>662</ele>
        <time>2014-06-14T08:40:21Z</time>
      </trkpt>
      <trkpt lat="45.4807" lon="5.94807">
        <ele>665</ele>
        <time>2014-06-14T08:40:30Z</time>
      </trkpt>
      <trkpt lat="45.48061" lon="5.94782">
        <ele>666</ele>
        <time>2014-06-14T08:41:16Z</time>
      </trkpt>
      <trkpt lat="45.48045" lon="5.94768">
        <ele>667</ele>
        <time>2014-06-14T08:42:12Z</time>
      </trkpt>
      <trkpt lat="45.48033" lon="5.94749">
        <ele>670</ele>
        <time>2014-06-14T08:42:31Z</time>
      </trkpt>
      <trkpt lat="45.48018" lon="5.94731">
        <ele>672</ele>
        <time>2014-06-14T08:42:42Z</time>
      </trkpt>
      <trkpt lat="45.48017" lon="5.94705">
        <ele>672</ele>
        <time>2014-06-14T08:42:56Z</time>
      </trkpt>
      <trkpt lat="45.48002" lon="5.94687">
        <ele>673</ele>
        <time>2014-06-14T08:43:05Z</time>
      </trkpt>
      <trkpt lat="45.47994" lon="5.9466">
        <ele>681</ele>
        <time>2014-06-14T08:43:28Z</time>
      </trkpt>
      <trkpt lat="45.47997" lon="5.94634">
        <ele>685</ele>
        <time>2014-06-14T08:43:43Z</time>
      </trkpt>
      <trkpt lat="45.47991" lon="5.94609">
        <ele>686</ele>
        <time>2014-06-14T08:44:25Z</time>
      </trkpt>
      <trkpt lat="45.47985" lon="5.94583">
        <ele>686</ele>
        <time>2014-06-14T08:44:42Z</time>
      </trkpt>
      <trkpt lat="45.47981" lon="5.94558">
        <ele>694</ele>
        <time>2014-06-14T08:45:20Z</time>
      </trkpt>
      <trkpt lat="45.47967" lon="5.94542">
        <ele>697</ele>
        <time>2014-06-14T08:45:55Z</time>
      </trkpt>
      <trkpt lat="45.47949" lon="5.94554">
        <ele>698</ele>
        <time>2014-06-14T08:46:10Z</time>
      </trkpt>
      <trkpt lat="45.47945" lon="5.94581">
        <ele>698</ele>
        <time>2014-06-14T08:46:19Z</time>
      </trkpt>
      <trkpt lat="45.47943" lon="5.94609">
        <ele>691</ele>
        <time>2014-06-14T08:46:25Z</time>
      </trkpt>
      <trkpt lat="45.47938" lon="5.94637">
        <ele>691</ele>
        <time>2014-06-14T08:46:34Z</time>
      </trkpt>
      <trkpt lat="45.47939" lon="5.94663">
        <ele>691</ele>
        <time>2014-06-14T08:46:40Z</time>
      </trkpt>
      <trkpt lat="45.47945" lon="5.94688">
        <ele>687</ele>
        <time>2014-06-14T08:46:48Z</time>
      </trkpt>
      <trkpt lat="45.47948" lon="5.94716">
        <ele>686</ele>
        <time>2014-06-14T08:47:00Z</time>
      </trkpt>
      <trkpt lat="45.47955" lon="5.94743">
        <ele>685</ele>
        <time>2014-06-14T08:47:08Z</time>
      </trkpt>
      <trkpt lat="45.47946" lon="5.94767">
        <ele>684</ele>
        <time>2014-06-14T08:47:18Z</time>
      </trkpt>
      <trkpt lat="45.47927" lon="5.94778">
        <ele>685</ele>
        <time>2014-06-14T08:47:26Z</time>
      </trkpt>
      <trkpt lat="45.47909" lon="5.94777">
        <ele>698</ele>
        <time>2014-06-14T08:47:58Z</time>
      </trkpt>
      <trkpt lat="45.47903" lon="5.94753">
        <ele>697</ele>
        <time>2014-06-14T08:48:14Z</time>
      </trkpt>
      <trkpt lat="45.47894" lon="5.9473">
        <ele>702</ele>
        <time>2014-06-14T08:48:37Z</time>
      </trkpt>
      <trkpt lat="45.47878" lon="5.94713">
        <ele>705</ele>
        <time>2014-06-14T08:49:14Z</time>
      </trkpt>
      <trkpt lat="45.4786" lon="5.94701">
        <ele>708</ele>
        <time>2014-06-14T08:49:50Z</time>
      </trkpt>
      <trkpt lat="45.47871" lon="5.94723">
        <ele>706</ele>
        <time>2014-06-14T08:50:14Z</time>
      </trkpt>
      <trkpt lat="45.47869" lon="5.94753">
        <ele>705</ele>
        <time>2014-06-14T08:50:20Z</time>
      </trkpt>
      <trkpt lat="45.47862" lon="5.94779">
        <ele>705</ele>
        <time>2014-06-14T08:50:27Z</time>
      </trkpt>
      <trkpt lat="45.47853" lon="5.94804">
        <ele>705</ele>
        <time>2014-06-14T08:50:35Z</time>
      </trkpt>
      <trkpt lat="45.47845" lon="5.9483">
        <ele>708</ele>
        <time>2014-06-14T08:50:51Z</time>
      </trkpt>
      <trkpt lat="45.47824" lon="5.94833">
        <ele>715</ele>
        <time>2014-06-14T08:51:07Z</time>
      </trkpt>
      <trkpt lat="45.47805" lon="5.94831">
        <ele>719</ele>
        <time>2014-06-14T08:52:08Z</time>
      </trkpt>
      <trkpt lat="45.47805" lon="5.94805">
        <ele>721</ele>
        <time>2014-06-14T08:52:17Z</time>
      </trkpt>
      <trkpt lat="45.47813" lon="5.94781">
        <ele>721</ele>
        <time>2014-06-14T08:52:29Z</time>
      </trkpt>
      <trkpt lat="45.47817" lon="5.94754">
        <ele>720</ele>
        <time>2014-06-14T08:52:43Z</time>
      </trkpt>
      <trkpt lat="45.47818" lon="5.94726">
        <ele>725</ele>
        <time>2014-06-14T08:52:58Z</time>
      </trkpt>
      <trkpt lat="45.47823" lon="5.947">
        <ele>725</ele>
        <time>2014-06-14T08:53:15Z</time>
      </trkpt>
      <trkpt lat="45.47812" lon="5.94678">
        <ele>726</ele>
        <time>2014-06-14T08:53:32Z</time>
      </trkpt>
      <trkpt lat="45.47803" lon="5.94655">
        <ele>729</ele>
        <time>2014-06-14T08:53:40Z</time>
      </trkpt>
      <trkpt lat="45.47795" lon="5.94632">
        <ele>731</ele>
        <time>2014-06-14T08:53:54Z</time>
      </trkpt>
      <trkpt lat="45.47792" lon="5.94606">
        <ele>731</ele>
        <time>2014-06-14T08:54:12Z</time>
      </trkpt>
      <trkpt lat="45.47783" lon="5.94584">
        <ele>733</ele>
        <time>2014-06-14T08:54:24Z</time>
      </trkpt>
      <trkpt lat="45.47774" lon="5.94561">
        <ele>738</ele>
        <time>2014-06-14T08:54:36Z</time>
      </trkpt>
      <trkpt lat="45.4777" lon="5.94535">
        <ele>739</ele>
        <time>2014-06-14T08:54:47Z</time>
      </trkpt>
      <trkpt lat="45.47773" lon="5.94509">
        <ele>741</ele>
        <time>2014-06-14T08:57:38Z</time>
      </trkpt>
      <trkpt lat="45.4778" lon="5.94484">
        <ele>747</ele>
        <time>2014-06-14T08:57:50Z</time>
      </trkpt>
      <trkpt lat="45.47795" lon="5.94467">
        <ele>746</ele>
        <time>2014-06-14T08:58:01Z</time>
      </trkpt>
      <trkpt lat="45.47809" lon="5.94448">
        <ele>746</ele>
        <time>2014-06-14T08:58:13Z</time>
      </trkpt>
      <trkpt lat="45.47814" lon="5.94421">
        <ele>747</ele>
        <time>2014-06-14T08:58:24Z</time>
      </trkpt>
      <trkpt lat="45.47815" lon="5.94395">
        <ele>754</ele>
        <time>2014-06-14T08:58:38Z</time>
      </trkpt>
      <trkpt lat="45.47819" lon="5.94369">
        <ele>757</ele>
        <time>2014-06-14T08:58:51Z</time>
      </trkpt>
      <trkpt lat="45.47829" lon="5.94347">
        <ele>758</ele>
        <time>2014-06-14T08:59:03Z</time>
      </trkpt>
      <trkpt lat="45.47841" lon="5.94329">
        <ele>760</ele>
        <time>2014-06-14T08:59:15Z</time>
      </trkpt>
      <trkpt lat="45.47853" lon="5.94308">
        <ele>762</ele>
        <time>2014-06-14T08:59:30Z</time>
      </trkpt>
      <trkpt lat="45.47855" lon="5.9428">
        <ele>765</ele>
        <time>2014-06-14T08:59:43Z</time>
      </trkpt>
      <trkpt lat="45.4784" lon="5.94263">
        <ele>769</ele>
        <time>2014-06-14T08:59:57Z</time>
      </trkpt>
      <trkpt lat="45.47825" lon="5.94248">
        <ele>778</ele>
        <time>2014-06-14T09:00:11Z</time>
      </trkpt>
      <trkpt lat="45.47809" lon="5.94234">
        <ele>783</ele>
        <time>2014-06-14T09:00:25Z</time>
      </trkpt>
      <trkpt lat="45.47791" lon="5.94237">
        <ele>784</ele>
        <time>2014-06-14T09:00:37Z</time>
      </trkpt>
      <trkpt lat="45.47772" lon="5.94243">
        <ele>784</ele>
        <time>2014-06-14T09:00:48Z</time>
      </trkpt>
      <trkpt lat="45.47754" lon="5.94252">
        <ele>780</ele>
        <time>2014-06-14T09:01:01Z</time>
      </trkpt>
      <trkpt lat="45.47735" lon="5.94258">
        <ele>782</ele>
        <time>2014-06-14T09:01:15Z</time>
      </trkpt>
      <trkpt lat="45.47716" lon="5.94254">
        <ele>783</ele>
        <time>2014-06-14T09:01:29Z</time>
      </trkpt>
      <trkpt lat="45.47701" lon="5.94236">
        <ele>792</ele>
        <time>2014-06-14T09:01:44Z</time>
      </trkpt>
      <trkpt lat="45.47685" lon="5.94223">
        <ele>794</ele>
        <time>2014-06-14T09:01:55Z</time>
      </trkpt>
      <trkpt lat="45.47667" lon="5.9422">
        <ele>802</ele>
        <time>2014-06-14T09:02:08Z</time>
      </trkpt>
      <trkpt lat="45.47646" lon="5.94225">
        <ele>803</ele>
        <time>2014-06-14T09:02:29Z</time>
      </trkpt>
      <trkpt lat="45.47627" lon="5.94219">
        <ele>806</ele>
        <time>2014-06-14T09:02:40Z</time>
      </trkpt>
      <trkpt lat="45.47623" lon="5.94192">
        <ele>809</ele>
        <time>2014-06-14T09:02:53Z</time>
      </trkpt>
      <trkpt lat="45.47632" lon="5.94169">
        <ele>808</ele>
        <time>2014-06-14T09:03:06Z</time>
      </trkpt>
      <trkpt lat="45.47646" lon="5.94148">
        <ele>815</ele>
        <time>2014-06-14T09:03:29Z</time>
      </trkpt>
      <trkpt lat="45.47663" lon="5.94136">
        <ele>816</ele>
        <time>2014-06-14T09:03:43Z</time>
      </trkpt>
      <trkpt lat="45.47679" lon="5.94122">
        <ele>812</ele>
        <time>2014-06-14T09:03:56Z</time>
      </trkpt>
      <trkpt lat="45.47697" lon="5.94113">
        <ele>812</ele>
        <time>2014-06-14T09:04:08Z</time>
      </trkpt>
      <trkpt lat="45.47716" lon="5.94118">
        <ele>811</ele>
        <time>2014-06-14T09:04:23Z</time>
      </trkpt>
      <trkpt lat="45.47735" lon="5.94124">
        <ele>810</ele>
        <time>2014-06-14T09:04:37Z</time>
      </trkpt>
      <trkpt lat="45.47751" lon="5.94112">
        <ele>809</ele>
        <time>2014-06-14T09:04:52Z</time>
      </trkpt>
      <trkpt lat="45.47756" lon="5.94085">
        <ele>815</ele>
        <time>2014-06-14T09:05:05Z</time>
      </trkpt>
      <trkpt lat="45.47756" lon="5.94058">
        <ele>820</ele>
        <time>2014-06-14T09:05:19Z</time>
      </trkpt>
      <trkpt lat="45.47755" lon="5.94033">
        <ele>823</ele>
        <time>2014-06-14T09:05:33Z</time>
      </trkpt>
      <trkpt lat="45.47756" lon="5.94006">
        <ele>828</ele>
        <time>2014-06-14T09:05:48Z</time>
      </trkpt>
      <trkpt lat="45.47756" lon="5.93979">
        <ele>832</ele>
        <time>2014-06-14T09:06:04Z</time>
      </trkpt>
      <trkpt lat="45.47752" lon="5.93953">
        <ele>834</ele>
        <time>2014-06-14T09:06:17Z</time>
      </trkpt>
      <trkpt lat="45.47756" lon="5.93927">
        <ele>838</ele>
        <time>2014-06-14T09:06:29Z</time>
      </trkpt>
      <trkpt lat="45.47757" lon="5.939">
        <ele>841</ele>
        <time>2014-06-14T09:06:42Z</time>
      </trkpt>
      <trkpt lat="45.47762" lon="5.93874">
        <ele>842</ele>
        <time>2014-06-14T09:06:55Z</time>
      </trkpt>
      <trkpt lat="45.47767" lon="5.93848">
        <ele>844</ele>
        <time>2014-06-14T09:07:11Z</time>
      </trkpt>
      <trkpt lat="45.47775" lon="5.93824">
        <ele>850</ele>
        <time>2014-06-14T09:07:22Z</time>
      </trkpt>
      <trkpt lat="45.47788" lon="5.93805">
        <ele>850</ele>
        <time>2014-06-14T09:07:36Z</time>
      </trkpt>
      <trkpt lat="45.47798" lon="5.93784">
        <ele>852</ele>
        <time>2014-06-14T09:07:50Z</time>
      </trkpt>
      <trkpt lat="45.47809" lon="5.93763">
        <ele>853</ele>
        <time>2014-06-14T09:08:06Z</time>
      </trkpt>
      <trkpt lat="45.47815" lon="5.93738">
        <ele>859</ele>
        <time>2014-06-14T09:08:19Z</time>
      </trkpt>
      <trkpt lat="45.47823" lon="5.93713">
        <ele>861</ele>
        <time>2014-06-14T09:08:34Z</time>
      </trkpt>
      <trkpt lat="45.4783" lon="5.93689">
        <ele>863</ele>
        <time>2014-06-14T09:09:44Z</time>
      </trkpt>
      <trkpt lat="45.47836" lon="5.93665">
        <ele>867</ele>
        <time>2014-06-14T09:09:57Z</time>
      </trkpt>
      <trkpt lat="45.47852" lon="5.93649">
        <ele>869</ele>
        <time>2014-06-14T09:10:12Z</time>
      </trkpt>
      <trkpt lat="45.47872" lon="5.93648">
        <ele>869</ele>
        <time>2014-06-14T09:10:28Z</time>
      </trkpt>
      <trkpt lat="45.47889" lon="5.93642">
        <ele>869</ele>
        <time>2014-06-14T09:10:38Z</time>
      </trkpt>
      <trkpt lat="45.47906" lon="5.93632">
        <ele>869</ele>
        <time>2014-06-14T09:10:48Z</time>
      </trkpt>
      <trkpt lat="45.47889" lon="5.93638">
        <ele>869</ele>
        <time>2014-06-14T09:10:56Z</time>
      </trkpt>
      <trkpt lat="45.47871" lon="5.93646">
        <ele>869</ele>
        <time>2014-06-14T09:11:00Z</time>
      </trkpt>
      <trkpt lat="45.47853" lon="5.93653">
        <ele>868</ele>
        <time>2014-06-14T09:11:05Z</time>
      </trkpt>
      <trkpt lat="45.47835" lon="5.93669">
        <ele>865</ele>
        <time>2014-06-14T09:11:08Z</time>
      </trkpt>
      <trkpt lat="45.47822" lon="5.937">
        <ele>862</ele>
        <time>2014-06-14T09:11:11Z</time>
      </trkpt>
      <trkpt lat="45.47815" lon="5.93727">
        <ele>860</ele>
        <time>2014-06-14T09:11:14Z</time>
      </trkpt>
      <trkpt lat="45.47808" lon="5.93752">
        <ele>853</ele>
        <time>2014-06-14T09:11:17Z</time>
      </trkpt>
      <trkpt lat="45.47798" lon="5.93774">
        <ele>852</ele>
        <time>2014-06-14T09:11:20Z</time>
      </trkpt>
      <trkpt lat="45.47785" lon="5.93798">
        <ele>851</ele>
        <time>2014-06-14T09:11:23Z</time>
      </trkpt>
      <trkpt lat="45.47773" lon="5.93818">
        <ele>850</ele>
        <time>2014-06-14T09:11:26Z</time>
      </trkpt>
      <trkpt lat="45.47757" lon="5.9383">
        <ele>850</ele>
        <time>2014-06-14T09:11:32Z</time>
      </trkpt>
      <trkpt lat="45.47738" lon="5.93831">
        <ele>853</ele>
        <time>2014-06-14T09:11:44Z</time>
      </trkpt>
      <trkpt lat="45.4772" lon="5.93822">
        <ele>856</ele>
        <time>2014-06-14T09:11:56Z</time>
      </trkpt>
      <trkpt lat="45.47702" lon="5.93829">
        <ele>858</ele>
        <time>2014-06-14T09:12:09Z</time>
      </trkpt>
      <trkpt lat="45.47696" lon="5.93804">
        <ele>859</ele>
        <time>2014-06-14T09:12:22Z</time>
      </trkpt>
      <trkpt lat="45.4771" lon="5.93786">
        <ele>859</ele>
        <time>2014-06-14T09:12:31Z</time>
      </trkpt>
      <trkpt lat="45.47722" lon="5.93767">
        <ele>860</ele>
        <time>2014-06-14T09:12:44Z</time>
      </trkpt>
      <trkpt lat="45.47732" lon="5.93745">
        <ele>864</ele>
        <time>2014-06-14T09:12:55Z</time>
      </trkpt>
      <trkpt lat="45.4774" lon="5.93719">
        <ele>865</ele>
        <time>2014-06-14T09:13:11Z</time>
      </trkpt>
      <trkpt lat="45.47742" lon="5.93693">
        <ele>867</ele>
        <time>2014-06-14T09:13:27Z</time>
      </trkpt>
      <trkpt lat="45.47726" lon="5.9368">
        <ele>868</ele>
        <time>2014-06-14T09:13:45Z</time>
      </trkpt>
      <trkpt lat="45.47711" lon="5.93697">
        <ele>868</ele>
        <time>2014-06-14T09:13:59Z</time>
      </trkpt>
      <trkpt lat="45.47696" lon="5.93713">
        <ele>868</ele>
        <time>2014-06-14T09:14:09Z</time>
      </trkpt>
      <trkpt lat="45.47678" lon="5.93723">
        <ele>869</ele>
        <time>2014-06-14T09:14:20Z</time>
      </trkpt>
      <trkpt lat="45.47661" lon="5.93732">
        <ele>876</ele>
        <time>2014-06-14T09:14:30Z</time>
      </trkpt>
      <trkpt lat="45.47644" lon="5.93746">
        <ele>877</ele>
        <time>2014-06-14T09:14:41Z</time>
      </trkpt>
      <trkpt lat="45.47632" lon="5.93767">
        <ele>874</ele>
        <time>2014-06-14T09:14:52Z</time>
      </trkpt>
      <trkpt lat="45.47622" lon="5.93789">
        <ele>874</ele>
        <time>2014-06-14T09:15:13Z</time>
      </trkpt>
      <trkpt lat="45.47606" lon="5.93803">
        <ele>875</ele>
        <time>2014-06-14T09:15:27Z</time>
      </trkpt>
      <trkpt lat="45.47589" lon="5.93817">
        <ele>876</ele>
        <time>2014-06-14T09:15:37Z</time>
      </trkpt>
      <trkpt lat="45.47574" lon="5.93836">
        <ele>879</ele>
        <time>2014-06-14T09:15:47Z</time>
      </trkpt>
      <trkpt lat="45.47561" lon="5.93855">
        <ele>881</ele>
        <time>2014-06-14T09:15:57Z</time>
      </trkpt>
      <trkpt lat="45.47552" lon="5.93878">
        <ele>881</ele>
        <time>2014-06-14T09:16:03Z</time>
      </trkpt>
      <trkpt lat="45.47536" lon="5.93896">
        <ele>882</ele>
        <time>2014-06-14T09:16:12Z</time>
      </trkpt>
      <trkpt lat="45.47522" lon="5.93915">
        <ele>884</ele>
        <time>2014-06-14T09:16:22Z</time>
      </trkpt>
      <trkpt lat="45.47506" lon="5.9393">
        <ele>881</ele>
        <time>2014-06-14T09:16:30Z</time>
      </trkpt>
      <trkpt lat="45.47494" lon="5.93948">
        <ele>897</ele>
        <time>2014-06-14T09:16:38Z</time>
      </trkpt>
      <trkpt lat="45.47478" lon="5.93967">
        <ele>898</ele>
        <time>2014-06-14T09:16:46Z</time>
      </trkpt>
      <trkpt lat="45.47474" lon="5.93994">
        <ele>896</ele>
        <time>2014-06-14T09:16:55Z</time>
      </trkpt>
      <trkpt lat="45.47482" lon="5.94018">
        <ele>890</ele>
        <time>2014-06-14T09:17:03Z</time>
      </trkpt>
      <trkpt lat="45.47481" lon="5.94046">
        <ele>891</ele>
        <time>2014-06-14T09:17:11Z</time>
      </trkpt>
      <trkpt lat="45.47474" lon="5.94071">
        <ele>890</ele>
        <time>2014-06-14T09:17:19Z</time>
      </trkpt>
      <trkpt lat="45.47464" lon="5.94096">
        <ele>892</ele>
        <time>2014-06-14T09:17:28Z</time>
      </trkpt>
      <trkpt lat="45.4746" lon="5.94122">
        <ele>894</ele>
        <time>2014-06-14T09:17:36Z</time>
      </trkpt>
      <trkpt lat="45.47464" lon="5.94147">
        <ele>892</ele>
        <time>2014-06-14T09:17:45Z</time>
      </trkpt>
      <trkpt lat="45.47464" lon="5.94175">
        <ele>888</ele>
        <time>2014-06-14T09:17:54Z</time>
      </trkpt>
      <trkpt lat="45.4746" lon="5.94201">
        <ele>889</ele>
        <time>2014-06-14T09:18:01Z</time>
      </trkpt>
      <trkpt lat="45.47449" lon="5.94226">
        <ele>891</ele>
        <time>2014-06-14T09:18:09Z</time>
      </trkpt>
      <trkpt lat="45.47437" lon="5.94247">
        <ele>896</ele>
        <time>2014-06-14T09:18:15Z</time>
      </trkpt>
      <trkpt lat="45.47432" lon="5.94273">
        <ele>891</ele>
        <time>2014-06-14T09:18:22Z</time>
      </trkpt>
      <trkpt lat="45.47418" lon="5.94293">
        <ele>890</ele>
        <time>2014-06-14T09:18:31Z</time>
      </trkpt>
      <trkpt lat="45.47412" lon="5.94318">
        <ele>913</ele>
        <time>2014-06-14T09:18:43Z</time>
      </trkpt>
      <trkpt lat="45.47406" lon="5.94344">
        <ele>911</ele>
        <time>2014-06-14T09:18:57Z</time>
      </trkpt>
      <trkpt lat="45.47406" lon="5.94371">
        <ele>916</ele>
        <time>2014-06-14T09:19:10Z</time>
      </trkpt>
      <trkpt lat="45.47404" lon="5.94398">
        <ele>914</ele>
        <time>2014-06-14T09:19:22Z</time>
      </trkpt>
      <trkpt lat="45.47396" lon="5.94422">
        <ele>912</ele>
        <time>2014-06-14T09:19:37Z</time>
      </trkpt>
      <trkpt lat="45.47389" lon="5.94445">
        <ele>916</ele>
        <time>2014-06-14T09:19:48Z</time>
      </trkpt>
      <trkpt lat="45.47384" lon="5.9447">
        <ele>917</ele>
        <time>2014-06-14T09:20:03Z</time>
      </trkpt>
      <trkpt lat="45.47377" lon="5.94494">
        <ele>918</ele>
        <time>2014-06-14T09:20:17Z</time>
      </trkpt>
      <trkpt lat="45.4737" lon="5.94519">
        <ele>917</ele>
        <time>2014-06-14T09:20:32Z</time>
      </trkpt>
      <trkpt lat="45.47366" lon="5.94545">
        <ele>917</ele>
        <time>2014-06-14T09:20:44Z</time>
      </trkpt>
      <trkpt lat="45.47364" lon="5.94572">
        <ele>918</ele>
        <time>2014-06-14T09:20:59Z</time>
      </trkpt>
      <trkpt lat="45.47361" lon="5.94598">
        <ele>914</ele>
        <time>2014-06-14T09:21:15Z</time>
      </trkpt>
      <trkpt lat="45.47357" lon="5.94623">
        <ele>913</ele>
        <time>2014-06-14T09:21:30Z</time>
      </trkpt>
      <trkpt lat="45.47351" lon="5.94648">
        <ele>914</ele>
        <time>2014-06-14T09:21:50Z</time>
      </trkpt>
      <trkpt lat="45.4734" lon="5.94671">
        <ele>918</ele>
        <time>2014-06-14T09:22:04Z</time>
      </trkpt>
      <trkpt lat="45.47335" lon="5.94697">
        <ele>909</ele>
        <time>2014-06-14T09:22:19Z</time>
      </trkpt>
      <trkpt lat="45.47326" lon="5.94719">
        <ele>924</ele>
        <time>2014-06-14T09:22:31Z</time>
      </trkpt>
      <trkpt lat="45.47308" lon="5.94723">
        <ele>925</ele>
        <time>2014-06-14T09:24:37Z</time>
      </trkpt>
      <trkpt lat="45.47289" lon="5.94718">
        <ele>927</ele>
        <time>2014-06-14T09:24:55Z</time>
      </trkpt>
      <trkpt lat="45.47272" lon="5.94708">
        <ele>929</ele>
        <time>2014-06-14T09:25:12Z</time>
      </trkpt>
      <trkpt lat="45.47254" lon="5.94698">
        <ele>932</ele>
        <time>2014-06-14T09:25:29Z</time>
      </trkpt>
      <trkpt lat="45.47235" lon="5.94688">
        <ele>940</ele>
        <time>2014-06-14T09:25:46Z</time>
      </trkpt>
      <trkpt lat="45.47216" lon="5.94678">
        <ele>941</ele>
        <time>2014-06-14T09:26:09Z</time>
      </trkpt>
      <trkpt lat="45.47199" lon="5.94668">
        <ele>942</ele>
        <time>2014-06-14T09:26:18Z</time>
      </trkpt>
      <trkpt lat="45.47182" lon="5.9466">
        <ele>954</ele>
        <time>2014-06-14T09:26:36Z</time>
      </trkpt>
      <trkpt lat="45.47164" lon="5.94653">
        <ele>958</ele>
        <time>2014-06-14T09:26:59Z</time>
      </trkpt>
      <trkpt lat="45.47147" lon="5.94667">
        <ele>950</ele>
        <time>2014-06-14T09:27:17Z</time>
      </trkpt>
      <trkpt lat="45.47128" lon="5.94682">
        <ele>950</ele>
        <time>2014-06-14T09:27:33Z</time>
      </trkpt>
      <trkpt lat="45.4711" lon="5.94687">
        <ele>952</ele>
        <time>2014-06-14T09:27:58Z</time>
      </trkpt>
      <trkpt lat="45.47092" lon="5.94691">
        <ele>954</ele>
        <time>2014-06-14T09:28:06Z</time>
      </trkpt>
      <trkpt lat="45.47074" lon="5.94686">
        <ele>962</ele>
        <time>2014-06-14T09:28:16Z</time>
      </trkpt>
      <trkpt lat="45.47057" lon="5.94675">
        <ele>963</ele>
        <time>2014-06-14T09:28:38Z</time>
      </trkpt>
      <trkpt lat="45.47037" lon="5.94657">
        <ele>979</ele>
        <time>2014-06-14T09:29:04Z</time>
      </trkpt>
      <trkpt lat="45.47019" lon="5.94658">
        <ele>980</ele>
        <time>2014-06-14T09:29:17Z</time>
      </trkpt>
      <trkpt lat="45.47003" lon="5.94674">
        <ele>973</ele>
        <time>2014-06-14T09:29:34Z</time>
      </trkpt>
      <trkpt lat="45.46988" lon="5.94689">
        <ele>975</ele>
        <time>2014-06-14T09:29:47Z</time>
      </trkpt>
      <trkpt lat="45.46969" lon="5.94691">
        <ele>975</ele>
        <time>2014-06-14T09:30:02Z</time>
      </trkpt>
      <trkpt lat="45.46951" lon="5.94682">
        <ele>978</ele>
        <time>2014-06-14T09:30:13Z</time>
      </trkpt>
      <trkpt lat="45.46932" lon="5.94692">
        <ele>980</ele>
        <time>2014-06-14T09:30:41Z</time>
      </trkpt>
      <trkpt lat="45.46913" lon="5.94696">
        <ele>983</ele>
        <time>2014-06-14T09:30:57Z</time>
      </trkpt>
      <trkpt lat="45.46896" lon="5.94703">
        <ele>981</ele>
        <time>2014-06-14T09:31:22Z</time>
      </trkpt>
      <trkpt lat="45.46878" lon="5.9469">
        <ele>983</ele>
        <time>2014-06-14T09:31:36Z</time>
      </trkpt>
      <trkpt lat="45.46863" lon="5.94676">
        <ele>985</ele>
        <time>2014-06-14T09:31:42Z</time>
      </trkpt>
      <trkpt lat="45.46849" lon="5.94657">
        <ele>1000</ele>
        <time>2014-06-14T09:31:54Z</time>
      </trkpt>
      <trkpt lat="45.46834" lon="5.94639">
        <ele>1003</ele>
        <time>2014-06-14T09:32:27Z</time>
      </trkpt>
      <trkpt lat="45.46815" lon="5.94632">
        <ele>1011</ele>
        <time>2014-06-14T09:32:39Z</time>
      </trkpt>
      <trkpt lat="45.46799" lon="5.94618">
        <ele>1016</ele>
        <time>2014-06-14T09:33:09Z</time>
      </trkpt>
      <trkpt lat="45.46782" lon="5.94633">
        <ele>1015</ele>
        <time>2014-06-14T09:33:16Z</time>
      </trkpt>
      <trkpt lat="45.46771" lon="5.94656">
        <ele>1013</ele>
        <time>2014-06-14T09:33:23Z</time>
      </trkpt>
      <trkpt lat="45.46761" lon="5.94681">
        <ele>1000</ele>
        <time>2014-06-14T09:33:35Z</time>
      </trkpt>
      <trkpt lat="45.46754" lon="5.94707">
        <ele>992</ele>
        <time>2014-06-14T09:33:41Z</time>
      </trkpt>
      <trkpt lat="45.46738" lon="5.94723">
        <ele>997</ele>
        <time>2014-06-14T09:33:47Z</time>
      </trkpt>
      <trkpt lat="45.46717" lon="5.94716">
        <ele>1000</ele>
        <time>2014-06-14T09:33:53Z</time>
      </trkpt>
      <trkpt lat="45.46698" lon="5.94705">
        <ele>1004</ele>
        <time>2014-06-14T09:34:04Z</time>
      </trkpt>
      <trkpt lat="45.46679" lon="5.94719">
        <ele>1001</ele>
        <time>2014-06-14T09:34:15Z</time>
      </trkpt>
      <trkpt lat="45.46666" lon="5.9474">
        <ele>1001</ele>
        <time>2014-06-14T09:34:19Z</time>
      </trkpt>
      <trkpt lat="45.46657" lon="5.94766">
        <ele>989</ele>
        <time>2014-06-14T09:34:24Z</time>
      </trkpt>
      <trkpt lat="45.46649" lon="5.94793">
        <ele>983</ele>
        <time>2014-06-14T09:34:28Z</time>
      </trkpt>
      <trkpt lat="45.46635" lon="5.94811">
        <ele>981</ele>
        <time>2014-06-14T09:34:42Z</time>
      </trkpt>
      <trkpt lat="45.46611" lon="5.94823">
        <ele>982</ele>
        <time>2014-06-14T09:35:08Z</time>
      </trkpt>
      <trkpt lat="45.46592" lon="5.94831">
        <ele>979</ele>
        <time>2014-06-14T09:35:14Z</time>
      </trkpt>
      <trkpt lat="45.46574" lon="5.94842">
        <ele>976</ele>
        <time>2014-06-14T09:35:20Z</time>
      </trkpt>
      <trkpt lat="45.46556" lon="5.9486">
        <ele>977</ele>
        <time>2014-06-14T09:35:45Z</time>
      </trkpt>
      <trkpt lat="45.46543" lon="5.94879">
        <ele>977</ele>
        <time>2014-06-14T09:35:50Z</time>
      </trkpt>
      <trkpt lat="45.46544" lon="5.94908">
        <ele>972</ele>
        <time>2014-06-14T09:36:19Z</time>
      </trkpt>
      <trkpt lat="45.46538" lon="5.94935">
        <ele>958</ele>
        <time>2014-06-14T09:36:27Z</time>
      </trkpt>
      <trkpt lat="45.4653" lon="5.94959">
        <ele>957</ele>
        <time>2014-06-14T09:36:32Z</time>
      </trkpt>
      <trkpt lat="45.46518" lon="5.94983">
        <ele>958</ele>
        <time>2014-06-14T09:36:38Z</time>
      </trkpt>
      <trkpt lat="45.46508" lon="5.95003">
        <ele>957</ele>
        <time>2014-06-14T09:36:43Z</time>
      </trkpt>
      <trkpt lat="45.46495" lon="5.95022">
        <ele>972</ele>
        <time>2014-06-14T09:36:49Z</time>
      </trkpt>
      <trkpt lat="45.46477" lon="5.95037">
        <ele>974</ele>
        <time>2014-06-14T09:36:57Z</time>
      </trkpt>
      <trkpt lat="45.4646" lon="5.95049">
        <ele>976</ele>
        <time>2014-06-14T09:37:02Z</time>
      </trkpt>
      <trkpt lat="45.46445" lon="5.95069">
        <ele>977</ele>
        <time>2014-06-14T09:37:06Z</time>
      </trkpt>
      <trkpt lat="45.4643" lon="5.95085">
        <ele>966</ele>
        <time>2014-06-14T09:37:12Z</time>
      </trkpt>
      <trkpt lat="45.46416" lon="5.95104">
        <ele>993</ele>
        <time>2014-06-14T09:37:19Z</time>
      </trkpt>
      <trkpt lat="45.46407" lon="5.95128">
        <ele>992</ele>
        <time>2014-06-14T09:37:24Z</time>
      </trkpt>
      <trkpt lat="45.46399" lon="5.95154">
        <ele>982</ele>
        <time>2014-06-14T09:37:31Z</time>
      </trkpt>
      <trkpt lat="45.46396" lon="5.95181">
        <ele>969</ele>
        <time>2014-06-14T09:37:38Z</time>
      </trkpt>
      <trkpt lat="45.46389" lon="5.95207">
        <ele>973</ele>
        <time>2014-06-14T09:38:02Z</time>
      </trkpt>
      <trkpt lat="45.46394" lon="5.95234">
        <ele>965</ele>
        <time>2014-06-14T09:38:49Z</time>
      </trkpt>
      <trkpt lat="45.4639" lon="5.9526">
        <ele>953</ele>
        <time>2014-06-14T09:38:53Z</time>
      </trkpt>
      <trkpt lat="45.46387" lon="5.95286">
        <ele>954</ele>
        <time>2014-06-14T09:39:00Z</time>
      </trkpt>
      <trkpt lat="45.46372" lon="5.95304">
        <ele>956</ele>
        <time>2014-06-14T09:39:10Z</time>
      </trkpt>
      <trkpt lat="45.46363" lon="5.95331">
        <ele>958</ele>
        <time>2014-06-14T09:39:38Z</time>
      </trkpt>
      <trkpt lat="45.46369" lon="5.95357">
        <ele>939</ele>
        <time>2014-06-14T09:39:46Z</time>
      </trkpt>
      <trkpt lat="45.46372" lon="5.95386">
        <ele>934</ele>
        <time>2014-06-14T09:39:51Z</time>
      </trkpt>
      <trkpt lat="45.46374" lon="5.95411">
        <ele>931</ele>
        <time>2014-06-14T09:40:17Z</time>
      </trkpt>
      <trkpt lat="45.46375" lon="5.95442">
        <ele>916</ele>
        <time>2014-06-14T09:40:31Z</time>
      </trkpt>
      <trkpt lat="45.4636" lon="5.95457">
        <ele>916</ele>
        <time>2014-06-14T09:40:35Z</time>
      </trkpt>
      <trkpt lat="45.46347" lon="5.95438">
        <ele>923</ele>
        <time>2014-06-14T09:40:42Z</time>
      </trkpt>
      <trkpt lat="45.46328" lon="5.9543">
        <ele>937</ele>
        <time>2014-06-14T09:40:51Z</time>
      </trkpt>
      <trkpt lat="45.46307" lon="5.95429">
        <ele>935</ele>
        <time>2014-06-14T09:40:57Z</time>
      </trkpt>
      <trkpt lat="45.46288" lon="5.95434">
        <ele>935</ele>
        <time>2014-06-14T09:41:06Z</time>
      </trkpt>
      <trkpt lat="45.46272" lon="5.95447">
        <ele>934</ele>
        <time>2014-06-14T09:41:16Z</time>
      </trkpt>
      <trkpt lat="45.46259" lon="5.95469">
        <ele>928</ele>
        <time>2014-06-14T09:41:22Z</time>
      </trkpt>
      <trkpt lat="45.46241" lon="5.95482">
        <ele>930</ele>
        <time>2014-06-14T09:41:26Z</time>
      </trkpt>
      <trkpt lat="45.46225" lon="5.95499">
        <ele>931</ele>
        <time>2014-06-14T09:41:32Z</time>
      </trkpt>
      <trkpt lat="45.46222" lon="5.95528">
        <ele>912</ele>
        <time>2014-06-14T09:41:39Z</time>
      </trkpt>
      <trkpt lat="45.46216" lon="5.95553">
        <ele>909</ele>
        <time>2014-06-14T09:41:46Z</time>
      </trkpt>
      <trkpt lat="45.46198" lon="5.95565">
        <ele>910</ele>
        <time>2014-06-14T09:42:00Z</time>
      </trkpt>
      <trkpt lat="45.46185" lon="5.95584">
        <ele>900</ele>
        <time>2014-06-14T09:42:08Z</time>
      </trkpt>
      <trkpt lat="45.46177" lon="5.95608">
        <ele>898</ele>
        <time>2014-06-14T09:42:17Z</time>
      </trkpt>
      <trkpt lat="45.46172" lon="5.95634">
        <ele>895</ele>
        <time>2014-06-14T09:42:28Z</time>
      </trkpt>
      <trkpt lat="45.46166" lon="5.95658">
        <ele>900</ele>
        <time>2014-06-14T09:42:40Z</time>
      </trkpt>
      <trkpt lat="45.46159" lon="5.95684">
        <ele>894</ele>
        <time>2014-06-14T09:42:50Z</time>
      </trkpt>
      <trkpt lat="45.46154" lon="5.95712">
        <ele>890</ele>
        <time>2014-06-14T09:42:57Z</time>
      </trkpt>
      <trkpt lat="45.46145" lon="5.95738">
        <ele>886</ele>
        <time>2014-06-14T09:43:03Z</time>
      </trkpt>
      <trkpt lat="45.46128" lon="5.95756">
        <ele>874</ele>
        <time>2014-06-14T09:43:07Z</time>
      </trkpt>
      <trkpt lat="45.46111" lon="5.95776">
        <ele>873</ele>
        <time>2014-06-14T09:43:11Z</time>
      </trkpt>
      <trkpt lat="45.46094" lon="5.95795">
        <ele>870</ele>
        <time>2014-06-14T09:43:15Z</time>
      </trkpt>
      <trkpt lat="45.46081" lon="5.95813">
        <ele>865</ele>
        <time>2014-06-14T09:43:20Z</time>
      </trkpt>
      <trkpt lat="45.46073" lon="5.95836">
        <ele>856</ele>
        <time>2014-06-14T09:43:25Z</time>
      </trkpt>
      <trkpt lat="45.46064" lon="5.95863">
        <ele>851</ele>
        <time>2014-06-14T09:43:31Z</time>
      </trkpt>
      <trkpt lat="45.46053" lon="5.95887">
        <ele>848</ele>
        <time>2014-06-14T09:43:37Z</time>
      </trkpt>
      <trkpt lat="45.46039" lon="5.95909">
        <ele>845</ele>
        <time>2014-06-14T09:43:43Z</time>
      </trkpt>
      <trkpt lat="45.46023" lon="5.95924">
        <ele>832</ele>
        <time>2014-06-14T09:43:48Z</time>
      </trkpt>
      <trkpt lat="45.4601" lon="5.95945">
        <ele>829</ele>
        <time>2014-06-14T09:43:55Z</time>
      </trkpt>
      <trkpt lat="45.45996" lon="5.95967">
        <ele>810</ele>
        <time>2014-06-14T09:44:00Z</time>
      </trkpt>
      <trkpt lat="45.45988" lon="5.95992">
        <ele>809</ele>
        <time>2014-06-14T09:44:06Z</time>
      </trkpt>
      <trkpt lat="45.45973" lon="5.96009">
        <ele>794</ele>
        <time>2014-06-14T09:44:33Z</time>
      </trkpt>
      <trkpt lat="45.45968" lon="5.96036">
        <ele>788</ele>
        <time>2014-06-14T09:44:55Z</time>
      </trkpt>
      <trkpt lat="45.45971" lon="5.96062">
        <ele>786</ele>
        <time>2014-06-14T09:45:25Z</time>
      </trkpt>
      <trkpt lat="45.45965" lon="5.96038">
        <ele>787</ele>
        <time>2014-06-14T09:46:22Z</time>
      </trkpt>
      <trkpt lat="45.45962" lon="5.96012">
        <ele>790</ele>
        <time>2014-06-14T09:46:39Z</time>
      </trkpt>
      <trkpt lat="45.45968" lon="5.95987">
        <ele>805</ele>
        <time>2014-06-14T09:46:54Z</time>
      </trkpt>
      <trkpt lat="45.45959" lon="5.95962">
        <ele>805</ele>
        <time>2014-06-14T09:47:10Z</time>
      </trkpt>
      <trkpt lat="45.45957" lon="5.95935">
        <ele>808</ele>
        <time>2014-06-14T09:47:25Z</time>
      </trkpt>
      <trkpt lat="45.45962" lon="5.9591">
        <ele>822</ele>
        <time>2014-06-14T09:47:46Z</time>
      </trkpt>
      <trkpt lat="45.45958" lon="5.9588">
        <ele>824</ele>
        <time>2014-06-14T09:48:01Z</time>
      </trkpt>
      <trkpt lat="45.45956" lon="5.95845">
        <ele>826</ele>
        <time>2014-06-14T09:48:39Z</time>
      </trkpt>
      <trkpt lat="45.45949" lon="5.95816">
        <ele>836</ele>
        <time>2014-06-14T09:48:43Z</time>
      </trkpt>
      <trkpt lat="45.45933" lon="5.95793">
        <ele>836</ele>
        <time>2014-06-14T09:48:47Z</time>
      </trkpt>
      <trkpt lat="45.45923" lon="5.95765">
        <ele>836</ele>
        <time>2014-06-14T09:48:52Z</time>
      </trkpt>
      <trkpt lat="45.45911" lon="5.95745">
        <ele>830</ele>
        <time>2014-06-14T09:48:58Z</time>
      </trkpt>
      <trkpt lat="45.45896" lon="5.95727">
        <ele>828</ele>
        <time>2014-06-14T09:49:01Z</time>
      </trkpt>
      <trkpt lat="45.45881" lon="5.95712">
        <ele>826</ele>
        <time>2014-06-14T09:49:05Z</time>
      </trkpt>
      <trkpt lat="45.45867" lon="5.95694">
        <ele>826</ele>
        <time>2014-06-14T09:49:10Z</time>
      </trkpt>
      <trkpt lat="45.45865" lon="5.95666">
        <ele>838</ele>
        <time>2014-06-14T09:49:18Z</time>
      </trkpt>
      <trkpt lat="45.45862" lon="5.9564">
        <ele>841</ele>
        <time>2014-06-14T09:49:31Z</time>
      </trkpt>
      <trkpt lat="45.45848" lon="5.95612">
        <ele>842</ele>
        <time>2014-06-14T09:49:38Z</time>
      </trkpt>
      <trkpt lat="45.45837" lon="5.95589">
        <ele>841</ele>
        <time>2014-06-14T09:49:40Z</time>
      </trkpt>
      <trkpt lat="45.45825" lon="5.95569">
        <ele>838</ele>
        <time>2014-06-14T09:49:45Z</time>
      </trkpt>
      <trkpt lat="45.45815" lon="5.95545">
        <ele>839</ele>
        <time>2014-06-14T09:50:05Z</time>
      </trkpt>
      <trkpt lat="45.45804" lon="5.95522">
        <ele>840</ele>
        <time>2014-06-14T09:50:10Z</time>
      </trkpt>
      <trkpt lat="45.45794" lon="5.955">
        <ele>852</ele>
        <time>2014-06-14T09:50:25Z</time>
      </trkpt>
      <trkpt lat="45.45786" lon="5.95475">
        <ele>852</ele>
        <time>2014-06-14T09:50:51Z</time>
      </trkpt>
      <trkpt lat="45.45775" lon="5.95451">
        <ele>853</ele>
        <time>2014-06-14T09:51:09Z</time>
      </trkpt>
      <trkpt lat="45.45761" lon="5.95432">
        <ele>853</ele>
        <time>2014-06-14T09:51:15Z</time>
      </trkpt>
      <trkpt lat="45.45752" lon="5.9541">
        <ele>857</ele>
        <time>2014-06-14T09:51:21Z</time>
      </trkpt>
      <trkpt lat="45.45736" lon="5.95387">
        <ele>850</ele>
        <time>2014-06-14T09:51:30Z</time>
      </trkpt>
      <trkpt lat="45.45719" lon="5.95375">
        <ele>849</ele>
        <time>2014-06-14T09:51:34Z</time>
      </trkpt>
      <trkpt lat="45.45705" lon="5.95359">
        <ele>848</ele>
        <time>2014-06-14T09:51:42Z</time>
      </trkpt>
      <trkpt lat="45.4569" lon="5.95339">
        <ele>846</ele>
        <time>2014-06-14T09:51:57Z</time>
      </trkpt>
      <trkpt lat="45.45679" lon="5.95317">
        <ele>854</ele>
        <time>2014-06-14T09:52:08Z</time>
      </trkpt>
      <trkpt lat="45.45671" lon="5.95293">
        <ele>859</ele>
        <time>2014-06-14T09:52:25Z</time>
      </trkpt>
      <trkpt lat="45.45672" lon="5.95267">
        <ele>861</ele>
        <time>2014-06-14T09:52:42Z</time>
      </trkpt>
      <trkpt lat="45.45668" lon="5.95241">
        <ele>865</ele>
        <time>2014-06-14T09:52:57Z</time>
      </trkpt>
      <trkpt lat="45.45669" lon="5.95215">
        <ele>874</ele>
        <time>2014-06-14T09:53:21Z</time>
      </trkpt>
      <trkpt lat="45.45664" lon="5.95189">
        <ele>864</ele>
        <time>2014-06-14T09:53:26Z</time>
      </trkpt>
      <trkpt lat="45.45656" lon="5.95165">
        <ele>874</ele>
        <time>2014-06-14T09:53:35Z</time>
      </trkpt>
      <trkpt lat="45.45649" lon="5.95141">
        <ele>876</ele>
        <time>2014-06-14T09:53:47Z</time>
      </trkpt>
      <trkpt lat="45.45633" lon="5.95127">
        <ele>877</ele>
        <time>2014-06-14T09:54:02Z</time>
      </trkpt>
      <trkpt lat="45.45621" lon="5.95104">
        <ele>878</ele>
        <time>2014-06-14T09:54:20Z</time>
      </trkpt>
      <trkpt lat="45.45603" lon="5.95095">
        <ele>878</ele>
        <time>2014-06-14T09:54:38Z</time>
      </trkpt>
      <trkpt lat="45.45601" lon="5.95068">
        <ele>891</ele>
        <time>2014-06-14T09:55:25Z</time>
      </trkpt>
      <trkpt lat="45.45605" lon="5.95042">
        <ele>896</ele>
        <time>2014-06-14T09:55:52Z</time>
      </trkpt>
      <trkpt lat="45.45596" lon="5.95018">
        <ele>899</ele>
        <time>2014-06-14T09:56:04Z</time>
      </trkpt>
      <trkpt lat="45.45586" lon="5.94996">
        <ele>904</ele>
        <time>2014-06-14T09:56:17Z</time>
      </trkpt>
      <trkpt lat="45.45566" lon="5.94979">
        <ele>906</ele>
        <time>2014-06-14T09:56:44Z</time>
      </trkpt>
      <trkpt lat="45.45546" lon="5.94976">
        <ele>906</ele>
        <time>2014-06-14T09:57:05Z</time>
      </trkpt>
      <trkpt lat="45.4553" lon="5.9499">
        <ele>903</ele>
        <time>2014-06-14T09:57:29Z</time>
      </trkpt>
      <trkpt lat="45.45513" lon="5.94977">
        <ele>903</ele>
        <time>2014-06-14T09:57:47Z</time>
      </trkpt>
      <trkpt lat="45.45514" lon="5.94944">
        <ele>909</ele>
        <time>2014-06-14T09:58:02Z</time>
      </trkpt>
      <trkpt lat="45.45504" lon="5.94916">
        <ele>918</ele>
        <time>2014-06-14T09:58:12Z</time>
      </trkpt>
      <trkpt lat="45.45488" lon="5.94899">
        <ele>916</ele>
        <time>2014-06-14T09:58:14Z</time>
      </trkpt>
      <trkpt lat="45.45471" lon="5.9489">
        <ele>915</ele>
        <time>2014-06-14T09:58:20Z</time>
      </trkpt>
      <trkpt lat="45.4545" lon="5.9488">
        <ele>913</ele>
        <time>2014-06-14T09:58:41Z</time>
      </trkpt>
      <trkpt lat="45.45432" lon="5.94867">
        <ele>913</ele>
        <time>2014-06-14T09:58:44Z</time>
      </trkpt>
      <trkpt lat="45.45416" lon="5.94852">
        <ele>908</ele>
        <time>2014-06-14T09:58:54Z</time>
      </trkpt>
      <trkpt lat="45.45407" lon="5.9483">
        <ele>918</ele>
        <time>2014-06-14T09:59:05Z</time>
      </trkpt>
      <trkpt lat="45.45407" lon="5.94803">
        <ele>923</ele>
        <time>2014-06-14T09:59:27Z</time>
      </trkpt>
      <trkpt lat="45.45406" lon="5.94775">
        <ele>929</ele>
        <time>2014-06-14T10:00:09Z</time>
      </trkpt>
      <trkpt lat="45.45397" lon="5.94752">
        <ele>932</ele>
        <time>2014-06-14T10:00:17Z</time>
      </trkpt>
      <trkpt lat="45.45385" lon="5.9473">
        <ele>948</ele>
        <time>2014-06-14T10:00:26Z</time>
      </trkpt>
      <trkpt lat="45.45366" lon="5.94733">
        <ele>948</ele>
        <time>2014-06-14T10:01:34Z</time>
      </trkpt>
      <trkpt lat="45.45349" lon="5.94745">
        <ele>945</ele>
        <time>2014-06-14T10:01:46Z</time>
      </trkpt>
      <trkpt lat="45.45332" lon="5.94754">
        <ele>938</ele>
        <time>2014-06-14T10:02:00Z</time>
      </trkpt>
      <trkpt lat="45.45314" lon="5.94758">
        <ele>933</ele>
        <time>2014-06-14T10:02:31Z</time>
      </trkpt>
      <trkpt lat="45.45298" lon="5.94746">
        <ele>949</ele>
        <time>2014-06-14T10:03:01Z</time>
      </trkpt>
      <trkpt lat="45.45281" lon="5.94736">
        <ele>950</ele>
        <time>2014-06-14T10:04:33Z</time>
      </trkpt>
      <trkpt lat="45.45266" lon="5.94722">
        <ele>952</ele>
        <time>2014-06-14T10:05:08Z</time>
      </trkpt>
      <trkpt lat="45.45251" lon="5.94708">
        <ele>955</ele>
        <time>2014-06-14T10:05:34Z</time>
      </trkpt>
      <trkpt lat="45.45234" lon="5.94696">
        <ele>959</ele>
        <time>2014-06-14T10:06:10Z</time>
      </trkpt>
      <trkpt lat="45.45221" lon="5.94678">
        <ele>961</ele>
        <time>2014-06-14T10:06:40Z</time>
      </trkpt>
      <trkpt lat="45.45209" lon="5.94659">
        <ele>980</ele>
        <time>2014-06-14T10:07:07Z</time>
      </trkpt>
      <trkpt lat="45.45192" lon="5.9465">
        <ele>979</ele>
        <time>2014-06-14T10:07:30Z</time>
      </trkpt>
      <trkpt lat="45.45175" lon="5.94643">
        <ele>978</ele>
        <time>2014-06-14T10:07:44Z</time>
      </trkpt>
      <trkpt lat="45.45161" lon="5.94625">
        <ele>993</ele>
        <time>2014-06-14T10:08:09Z</time>
      </trkpt>
      <trkpt lat="45.45142" lon="5.94607">
        <ele>1000</ele>
        <time>2014-06-14T10:08:44Z</time>
      </trkpt>
      <trkpt lat="45.4514" lon="5.9458">
        <ele>1017</ele>
        <time>2014-06-14T10:08:50Z</time>
      </trkpt>
      <trkpt lat="45.45134" lon="5.94551">
        <ele>1024</ele>
        <time>2014-06-14T10:09:23Z</time>
      </trkpt>
      <trkpt lat="45.45121" lon="5.94531">
        <ele>1030</ele>
        <time>2014-06-14T10:09:24Z</time>
      </trkpt>
      <trkpt lat="45.45106" lon="5.94517">
        <ele>1037</ele>
        <time>2014-06-14T10:09:29Z</time>
      </trkpt>
      <trkpt lat="45.45093" lon="5.94493">
        <ele>1056</ele>
        <time>2014-06-14T10:10:00Z</time>
      </trkpt>
      <trkpt lat="45.45101" lon="5.94518">
        <ele>1038</ele>
        <time>2014-06-14T10:12:28Z</time>
      </trkpt>
      <trkpt lat="45.45101" lon="5.94545">
        <ele>1031</ele>
        <time>2014-06-14T10:12:39Z</time>
      </trkpt>
      <trkpt lat="45.45096" lon="5.94516">
        <ele>1041</ele>
        <time>2014-06-14T10:13:09Z</time>
      </trkpt>
      <trkpt lat="45.45099" lon="5.94491">
        <ele>1055</ele>
        <time>2014-06-14T10:13:24Z</time>
      </trkpt>
      <trkpt lat="45.45087" lon="5.94472">
        <ele>1057</ele>
        <time>2014-06-14T10:13:46Z</time>
      </trkpt>
      <trkpt lat="45.451" lon="5.94501">
        <ele>1043</ele>
        <time>2014-06-14T10:14:07Z</time>
      </trkpt>
      <trkpt lat="45.45116" lon="5.94515">
        <ele>1034</ele>
        <time>2014-06-14T10:14:15Z</time>
      </trkpt>
      <trkpt lat="45.45132" lon="5.94529">
        <ele>1028</ele>
        <time>2014-06-14T10:14:25Z</time>
      </trkpt>
      <trkpt lat="45.45133" lon="5.94556">
        <ele>1023</ele>
        <time>2014-06-14T10:14:38Z</time>
      </trkpt>
      <trkpt lat="45.45145" lon="5.94575">
        <ele>1016</ele>
        <time>2014-06-14T10:15:40Z</time>
      </trkpt>
      <trkpt lat="45.45136" lon="5.94599">
        <ele>1001</ele>
        <time>2014-06-14T10:17:27Z</time>
      </trkpt>
      <trkpt lat="45.45154" lon="5.94597">
        <ele>999</ele>
        <time>2014-06-14T10:19:01Z</time>
      </trkpt>
      <trkpt lat="45.45172" lon="5.94592">
        <ele>994</ele>
        <time>2014-06-14T10:19:17Z</time>
      </trkpt>
      <trkpt lat="45.45183" lon="5.94617">
        <ele>987</ele>
        <time>2014-06-14T10:19:22Z</time>
      </trkpt>
      <trkpt lat="45.45195" lon="5.94643">
        <ele>981</ele>
        <time>2014-06-14T10:19:27Z</time>
      </trkpt>
      <trkpt lat="45.45208" lon="5.94666">
        <ele>980</ele>
        <time>2014-06-14T10:19:33Z</time>
      </trkpt>
      <trkpt lat="45.4522" lon="5.94686">
        <ele>960</ele>
        <time>2014-06-14T10:19:37Z</time>
      </trkpt>
      <trkpt lat="45.45237" lon="5.94702">
        <ele>958</ele>
        <time>2014-06-14T10:19:42Z</time>
      </trkpt>
      <trkpt lat="45.45249" lon="5.94721">
        <ele>952</ele>
        <time>2014-06-14T10:19:46Z</time>
      </trkpt>
      <trkpt lat="45.45275" lon="5.94714">
        <ele>954</ele>
        <time>2014-06-14T10:20:07Z</time>
      </trkpt>
      <trkpt lat="45.45257" lon="5.9471">
        <ele>955</ele>
        <time>2014-06-14T10:20:32Z</time>
      </trkpt>
      <trkpt lat="45.45239" lon="5.94702">
        <ele>958</ele>
        <time>2014-06-14T10:20:46Z</time>
      </trkpt>
      <trkpt lat="45.45219" lon="5.94694">
        <ele>958</ele>
        <time>2014-06-14T10:21:19Z</time>
      </trkpt>
      <trkpt lat="45.45202" lon="5.94685">
        <ele>959</ele>
        <time>2014-06-14T10:21:31Z</time>
      </trkpt>
      <trkpt lat="45.45183" lon="5.94683">
        <ele>959</ele>
        <time>2014-06-14T10:21:45Z</time>
      </trkpt>
      <trkpt lat="45.45166" lon="5.94669">
        <ele>964</ele>
        <time>2014-06-14T10:22:22Z</time>
      </trkpt>
      <trkpt lat="45.45148" lon="5.94683">
        <ele>976</ele>
        <time>2014-06-14T10:23:32Z</time>
      </trkpt>
      <trkpt lat="45.4516" lon="5.94705">
        <ele>976</ele>
        <time>2014-06-14T10:26:14Z</time>
      </trkpt>
      <trkpt lat="45.45165" lon="5.9473">
        <ele>969</ele>
        <time>2014-06-14T10:26:56Z</time>
      </trkpt>
      <trkpt lat="45.45172" lon="5.94757">
        <ele>949</ele>
        <time>2014-06-14T10:27:28Z</time>
      </trkpt>
      <trkpt lat="45.45169" lon="5.9473">
        <ele>954</ele>
        <time>2014-06-14T10:28:32Z</time>
      </trkpt>
      <trkpt lat="45.45151" lon="5.94732">
        <ele>973</ele>
        <time>2014-06-14T10:33:23Z</time>
      </trkpt>
      <trkpt lat="45.45133" lon="5.94728">
        <ele>982</ele>
        <time>2014-06-14T10:37:52Z</time>
      </trkpt>
      <trkpt lat="45.45123" lon="5.94705">
        <ele>987</ele>
        <time>2014-06-14T10:38:26Z</time>
      </trkpt>
      <trkpt lat="45.45131" lon="5.94732">
        <ele>982</ele>
        <time>2014-06-14T10:38:49Z</time>
      </trkpt>
      <trkpt lat="45.45133" lon="5.9476">
        <ele>982</ele>
        <time>2014-06-14T10:39:03Z</time>
      </trkpt>
      <trkpt lat="45.45137" lon="5.94786">
        <ele>984</ele>
        <time>2014-06-14T10:39:25Z</time>
      </trkpt>
      <trkpt lat="45.45141" lon="5.94811">
        <ele>984</ele>
        <time>2014-06-14T10:39:41Z</time>
      </trkpt>
      <trkpt lat="45.45152" lon="5.94832">
        <ele>978</ele>
        <time>2014-06-14T10:40:00Z</time>
      </trkpt>
      <trkpt lat="45.4516" lon="5.94855">
        <ele>983</ele>
        <time>2014-06-14T10:40:29Z</time>
      </trkpt>
      <trkpt lat="45.45148" lon="5.94875">
        <ele>988</ele>
        <time>2014-06-14T10:41:02Z</time>
      </trkpt>
      <trkpt lat="45.45141" lon="5.94899">
        <ele>988</ele>
        <time>2014-06-14T10:41:24Z</time>
      </trkpt>
      <trkpt lat="45.45137" lon="5.94925">
        <ele>988</ele>
        <time>2014-06-14T10:41:42Z</time>
      </trkpt>
      <trkpt lat="45.4514" lon="5.94952">
        <ele>988</ele>
        <time>2014-06-14T10:42:04Z</time>
      </trkpt>
      <trkpt lat="45.45146" lon="5.94976">
        <ele>985</ele>
        <time>2014-06-14T10:42:28Z</time>
      </trkpt>
      <trkpt lat="45.45148" lon="5.95003">
        <ele>977</ele>
        <time>2014-06-14T10:42:59Z</time>
      </trkpt>
      <trkpt lat="45.45141" lon="5.95027">
        <ele>981</ele>
        <time>2014-06-14T10:43:19Z</time>
      </trkpt>
      <trkpt lat="45.45131" lon="5.95049">
        <ele>983</ele>
        <time>2014-06-14T10:43:42Z</time>
      </trkpt>
      <trkpt lat="45.45127" lon="5.95075">
        <ele>983</ele>
        <time>2014-06-14T10:44:05Z</time>
      </trkpt>
      <trkpt lat="45.4512" lon="5.95099">
        <ele>978</ele>
        <time>2014-06-14T10:44:25Z</time>
      </trkpt>
      <trkpt lat="45.45109" lon="5.95121">
        <ele>978</ele>
        <time>2014-06-14T10:44:44Z</time>
      </trkpt>
      <trkpt lat="45.45106" lon="5.95147">
        <ele>977</ele>
        <time>2014-06-14T10:45:36Z</time>
      </trkpt>
      <trkpt lat="45.45103" lon="5.95174">
        <ele>970</ele>
        <time>2014-06-14T10:45:46Z</time>
      </trkpt>
      <trkpt lat="45.45098" lon="5.952">
        <ele>966</ele>
        <time>2014-06-14T10:45:57Z</time>
      </trkpt>
      <trkpt lat="45.45092" lon="5.95226">
        <ele>964</ele>
        <time>2014-06-14T10:46:07Z</time>
      </trkpt>
      <trkpt lat="45.45085" lon="5.95253">
        <ele>965</ele>
        <time>2014-06-14T10:46:14Z</time>
      </trkpt>
      <trkpt lat="45.45079" lon="5.95279">
        <ele>972</ele>
        <time>2014-06-14T10:46:25Z</time>
      </trkpt>
      <trkpt lat="45.45062" lon="5.95293">
        <ele>973</ele>
        <time>2014-06-14T10:46:32Z</time>
      </trkpt>
      <trkpt lat="45.45046" lon="5.95306">
        <ele>974</ele>
        <time>2014-06-14T10:46:40Z</time>
      </trkpt>
      <trkpt lat="45.45039" lon="5.95332">
        <ele>974</ele>
        <time>2014-06-14T10:46:46Z</time>
      </trkpt>
      <trkpt lat="45.45034" lon="5.95357">
        <ele>970</ele>
        <time>2014-06-14T10:46:55Z</time>
      </trkpt>
      <trkpt lat="45.45048" lon="5.95373">
        <ele>967</ele>
        <time>2014-06-14T10:47:21Z</time>
      </trkpt>
      <trkpt lat="45.45055" lon="5.954">
        <ele>966</ele>
        <time>2014-06-14T10:47:44Z</time>
      </trkpt>
      <trkpt lat="45.45046" lon="5.95426">
        <ele>965</ele>
        <time>2014-06-14T10:47:59Z</time>
      </trkpt>
      <trkpt lat="45.4504" lon="5.95451">
        <ele>966</ele>
        <time>2014-06-14T10:48:08Z</time>
      </trkpt>
      <trkpt lat="45.45029" lon="5.95472">
        <ele>967</ele>
        <time>2014-06-14T10:48:27Z</time>
      </trkpt>
      <trkpt lat="45.45031" lon="5.95499">
        <ele>967</ele>
        <time>2014-06-14T10:48:35Z</time>
      </trkpt>
      <trkpt lat="45.45025" lon="5.95527">
        <ele>961</ele>
        <time>2014-06-14T10:48:41Z</time>
      </trkpt>
      <trkpt lat="45.45013" lon="5.95549">
        <ele>960</ele>
        <time>2014-06-14T10:48:48Z</time>
      </trkpt>
      <trkpt lat="45.45002" lon="5.9557">
        <ele>960</ele>
        <time>2014-06-14T10:49:11Z</time>
      </trkpt>
      <trkpt lat="45.44984" lon="5.95576">
        <ele>969</ele>
        <time>2014-06-14T10:49:31Z</time>
      </trkpt>
      <trkpt lat="45.44966" lon="5.95571">
        <ele>974</ele>
        <time>2014-06-14T10:49:59Z</time>
      </trkpt>
      <trkpt lat="45.44949" lon="5.95578">
        <ele>976</ele>
        <time>2014-06-14T10:50:25Z</time>
      </trkpt>
      <trkpt lat="45.44931" lon="5.95584">
        <ele>971</ele>
        <time>2014-06-14T10:50:47Z</time>
      </trkpt>
      <trkpt lat="45.44912" lon="5.95589">
        <ele>975</ele>
        <time>2014-06-14T10:51:05Z</time>
      </trkpt>
      <trkpt lat="45.44895" lon="5.95593">
        <ele>972</ele>
        <time>2014-06-14T10:51:23Z</time>
      </trkpt>
      <trkpt lat="45.44882" lon="5.95613">
        <ele>969</ele>
        <time>2014-06-14T10:52:28Z</time>
      </trkpt>
      <trkpt lat="45.4487" lon="5.95631">
        <ele>967</ele>
        <time>2014-06-14T10:52:34Z</time>
      </trkpt>
      <trkpt lat="45.44851" lon="5.95639">
        <ele>965</ele>
        <time>2014-06-14T10:52:45Z</time>
      </trkpt>
      <trkpt lat="45.44836" lon="5.9566">
        <ele>957</ele>
        <time>2014-06-14T10:52:50Z</time>
      </trkpt>
      <trkpt lat="45.44819" lon="5.95672">
        <ele>945</ele>
        <time>2014-06-14T10:52:55Z</time>
      </trkpt>
      <trkpt lat="45.44802" lon="5.9568">
        <ele>939</ele>
        <time>2014-06-14T10:53:02Z</time>
      </trkpt>
      <trkpt lat="45.4479" lon="5.957">
        <ele>935</ele>
        <time>2014-06-14T10:53:09Z</time>
      </trkpt>
      <trkpt lat="45.44772" lon="5.95715">
        <ele>931</ele>
        <time>2014-06-14T10:53:17Z</time>
      </trkpt>
      <trkpt lat="45.44753" lon="5.95714">
        <ele>930</ele>
        <time>2014-06-14T10:53:22Z</time>
      </trkpt>
      <trkpt lat="45.44735" lon="5.95712">
        <ele>932</ele>
        <time>2014-06-14T10:53:28Z</time>
      </trkpt>
      <trkpt lat="45.44728" lon="5.95736">
        <ele>929</ele>
        <time>2014-06-14T10:53:45Z</time>
      </trkpt>
      <trkpt lat="45.4473" lon="5.95764">
        <ele>918</ele>
        <time>2014-06-14T10:53:55Z</time>
      </trkpt>
      <trkpt lat="45.44737" lon="5.95798">
        <ele>915</ele>
        <time>2014-06-14T10:53:59Z</time>
      </trkpt>
      <trkpt lat="45.44736" lon="5.95828">
        <ele>909</ele>
        <time>2014-06-14T10:54:02Z</time>
      </trkpt>
      <trkpt lat="45.44737" lon="5.95854">
        <ele>904</ele>
        <time>2014-06-14T10:54:06Z</time>
      </trkpt>
      <trkpt lat="45.44738" lon="5.95886">
        <ele>902</ele>
        <time>2014-06-14T10:54:10Z</time>
      </trkpt>
      <trkpt lat="45.4475" lon="5.95909">
        <ele>897</ele>
        <time>2014-06-14T10:54:17Z</time>
      </trkpt>
      <trkpt lat="45.44767" lon="5.95922">
        <ele>888</ele>
        <time>2014-06-14T10:54:30Z</time>
      </trkpt>
      <trkpt lat="45.44777" lon="5.95945">
        <ele>884</ele>
        <time>2014-06-14T10:54:35Z</time>
      </trkpt>
      <trkpt lat="45.44784" lon="5.95974">
        <ele>883</ele>
        <time>2014-06-14T10:54:39Z</time>
      </trkpt>
      <trkpt lat="45.44789" lon="5.95999">
        <ele>881</ele>
        <time>2014-06-14T10:54:43Z</time>
      </trkpt>
      <trkpt lat="45.44794" lon="5.96026">
        <ele>878</ele>
        <time>2014-06-14T10:54:47Z</time>
      </trkpt>
      <trkpt lat="45.448" lon="5.96054">
        <ele>876</ele>
        <time>2014-06-14T10:54:52Z</time>
      </trkpt>
      <trkpt lat="45.44804" lon="5.96081">
        <ele>874</ele>
        <time>2014-06-14T10:54:56Z</time>
      </trkpt>
      <trkpt lat="45.4481" lon="5.96108">
        <ele>871</ele>
        <time>2014-06-14T10:55:01Z</time>
      </trkpt>
      <trkpt lat="45.4482" lon="5.96135">
        <ele>869</ele>
        <time>2014-06-14T10:55:06Z</time>
      </trkpt>
      <trkpt lat="45.44833" lon="5.96154">
        <ele>864</ele>
        <time>2014-06-14T10:55:12Z</time>
      </trkpt>
      <trkpt lat="45.44842" lon="5.96181">
        <ele>850</ele>
        <time>2014-06-14T10:55:19Z</time>
      </trkpt>
      <trkpt lat="45.44837" lon="5.96208">
        <ele>846</ele>
        <time>2014-06-14T10:55:28Z</time>
      </trkpt>
      <trkpt lat="45.4483" lon="5.96232">
        <ele>855</ele>
        <time>2014-06-14T10:55:45Z</time>
      </trkpt>
      <trkpt lat="45.44823" lon="5.96257">
        <ele>847</ele>
        <time>2014-06-14T10:55:54Z</time>
      </trkpt>
      <trkpt lat="45.44813" lon="5.96279">
        <ele>848</ele>
        <time>2014-06-14T10:56:01Z</time>
      </trkpt>
      <trkpt lat="45.44802" lon="5.96304">
        <ele>847</ele>
        <time>2014-06-14T10:56:08Z</time>
      </trkpt>
      <trkpt lat="45.44794" lon="5.96329">
        <ele>846</ele>
        <time>2014-06-14T10:56:16Z</time>
      </trkpt>
      <trkpt lat="45.4478" lon="5.96351">
        <ele>842</ele>
        <time>2014-06-14T10:56:22Z</time>
      </trkpt>
      <trkpt lat="45.44766" lon="5.96372">
        <ele>841</ele>
        <time>2014-06-14T10:56:28Z</time>
      </trkpt>
      <trkpt lat="45.44752" lon="5.96391">
        <ele>841</ele>
        <time>2014-06-14T10:56:34Z</time>
      </trkpt>
      <trkpt lat="45.44737" lon="5.96411">
        <ele>846</ele>
        <time>2014-06-14T10:56:40Z</time>
      </trkpt>
      <trkpt lat="45.4473" lon="5.96439">
        <ele>845</ele>
        <time>2014-06-14T10:56:47Z</time>
      </trkpt>
      <trkpt lat="45.44738" lon="5.96466">
        <ele>844</ele>
        <time>2014-06-14T10:56:54Z</time>
      </trkpt>
      <trkpt lat="45.44747" lon="5.96495">
        <ele>840</ele>
        <time>2014-06-14T10:56:59Z</time>
      </trkpt>
      <trkpt lat="45.44759" lon="5.96525">
        <ele>834</ele>
        <time>2014-06-14T10:57:03Z</time>
      </trkpt>
      <trkpt lat="45.44768" lon="5.96552">
        <ele>832</ele>
        <time>2014-06-14T10:57:06Z</time>
      </trkpt>
      <trkpt lat="45.44779" lon="5.96582">
        <ele>831</ele>
        <time>2014-06-14T10:57:09Z</time>
      </trkpt>
      <trkpt lat="45.44786" lon="5.96608">
        <ele>828</ele>
        <time>2014-06-14T10:57:11Z</time>
      </trkpt>
      <trkpt lat="45.44795" lon="5.96639">
        <ele>826</ele>
        <time>2014-06-14T10:57:14Z</time>
      </trkpt>
      <trkpt lat="45.44795" lon="5.96667">
        <ele>826</ele>
        <time>2014-06-14T10:57:21Z</time>
      </trkpt>
      <trkpt lat="45.44791" lon="5.967">
        <ele>824</ele>
        <time>2014-06-14T10:57:32Z</time>
      </trkpt>
      <trkpt lat="45.44797" lon="5.96739">
        <ele>823</ele>
        <time>2014-06-14T10:57:40Z</time>
      </trkpt>
      <trkpt lat="45.44811" lon="5.96761">
        <ele>813</ele>
        <time>2014-06-14T10:57:48Z</time>
      </trkpt>
      <trkpt lat="45.44829" lon="5.96778">
        <ele>811</ele>
        <time>2014-06-14T10:57:56Z</time>
      </trkpt>
      <trkpt lat="45.44827" lon="5.96805">
        <ele>806</ele>
        <time>2014-06-14T10:58:04Z</time>
      </trkpt>
      <trkpt lat="45.44814" lon="5.96831">
        <ele>803</ele>
        <time>2014-06-14T10:58:16Z</time>
      </trkpt>
      <trkpt lat="45.44799" lon="5.96847">
        <ele>787</ele>
        <time>2014-06-14T10:58:22Z</time>
      </trkpt>
      <trkpt lat="45.4478" lon="5.9686">
        <ele>786</ele>
        <time>2014-06-14T10:58:29Z</time>
      </trkpt>
      <trkpt lat="45.44755" lon="5.96879">
        <ele>782</ele>
        <time>2014-06-14T10:58:35Z</time>
      </trkpt>
      <trkpt lat="45.44737" lon="5.96887">
        <ele>783</ele>
        <time>2014-06-14T10:58:40Z</time>
      </trkpt>
      <trkpt lat="45.44719" lon="5.96901">
        <ele>781</ele>
        <time>2014-06-14T10:58:47Z</time>
      </trkpt>
      <trkpt lat="45.44718" lon="5.96927">
        <ele>756</ele>
        <time>2014-06-14T10:58:56Z</time>
      </trkpt>
      <trkpt lat="45.44728" lon="5.9695">
        <ele>752</ele>
        <time>2014-06-14T10:59:01Z</time>
      </trkpt>
      <trkpt lat="45.44745" lon="5.96965">
        <ele>748</ele>
        <time>2014-06-14T10:59:06Z</time>
      </trkpt>
      <trkpt lat="45.44768" lon="5.96969">
        <ele>747</ele>
        <time>2014-06-14T10:59:09Z</time>
      </trkpt>
      <trkpt lat="45.44789" lon="5.96975">
        <ele>747</ele>
        <time>2014-06-14T10:59:12Z</time>
      </trkpt>
      <trkpt lat="45.4481" lon="5.96989">
        <ele>743</ele>
        <time>2014-06-14T10:59:17Z</time>
      </trkpt>
      <trkpt lat="45.44829" lon="5.97">
        <ele>735</ele>
        <time>2014-06-14T10:59:25Z</time>
      </trkpt>
      <trkpt lat="45.44844" lon="5.97019">
        <ele>716</ele>
        <time>2014-06-14T10:59:31Z</time>
      </trkpt>
      <trkpt lat="45.44861" lon="5.97037">
        <ele>708</ele>
        <time>2014-06-14T10:59:36Z</time>
      </trkpt>
      <trkpt lat="45.44882" lon="5.97056">
        <ele>701</ele>
        <time>2014-06-14T10:59:43Z</time>
      </trkpt>
      <trkpt lat="45.44901" lon="5.97068">
        <ele>694</ele>
        <time>2014-06-14T10:59:46Z</time>
      </trkpt>
      <trkpt lat="45.44921" lon="5.97071">
        <ele>682</ele>
        <time>2014-06-14T10:59:49Z</time>
      </trkpt>
      <trkpt lat="45.44935" lon="5.97088">
        <ele>665</ele>
        <time>2014-06-14T11:00:00Z</time>
      </trkpt>
      <trkpt lat="45.44948" lon="5.97108">
        <ele>657</ele>
        <time>2014-06-14T11:00:07Z</time>
      </trkpt>
      <trkpt lat="45.4495" lon="5.97134">
        <ele>651</ele>
        <time>2014-06-14T11:00:21Z</time>
      </trkpt>
      <trkpt lat="45.44967" lon="5.97146">
        <ele>648</ele>
        <time>2014-06-14T11:00:28Z</time>
      </trkpt>
      <trkpt lat="45.44989" lon="5.9715">
        <ele>645</ele>
        <time>2014-06-14T11:00:35Z</time>
      </trkpt>
      <trkpt lat="45.44996" lon="5.97177">
        <ele>629</ele>
        <time>2014-06-14T11:00:44Z</time>
      </trkpt>
      <trkpt lat="45.44978" lon="5.97191">
        <ele>623</ele>
        <time>2014-06-14T11:00:52Z</time>
      </trkpt>
      <trkpt lat="45.44974" lon="5.97218">
        <ele>617</ele>
        <time>2014-06-14T11:01:00Z</time>
      </trkpt>
      <trkpt lat="45.4499" lon="5.97232">
        <ele>614</ele>
        <time>2014-06-14T11:01:04Z</time>
      </trkpt>
      <trkpt lat="45.45009" lon="5.97225">
        <ele>611</ele>
        <time>2014-06-14T11:01:07Z</time>
      </trkpt>
      <trkpt lat="45.45025" lon="5.9721">
        <ele>613</ele>
        <time>2014-06-14T11:01:11Z</time>
      </trkpt>
      <trkpt lat="45.45036" lon="5.97185">
        <ele>615</ele>
        <time>2014-06-14T11:01:15Z</time>
      </trkpt>
      <trkpt lat="45.45054" lon="5.97171">
        <ele>612</ele>
        <time>2014-06-14T11:01:24Z</time>
      </trkpt>
      <trkpt lat="45.45069" lon="5.97188">
        <ele>610</ele>
        <time>2014-06-14T11:01:28Z</time>
      </trkpt>
      <trkpt lat="45.45088" lon="5.97207">
        <ele>592</ele>
        <time>2014-06-14T11:01:47Z</time>
      </trkpt>
      <trkpt lat="45.45105" lon="5.97218">
        <ele>589</ele>
        <time>2014-06-14T11:01:51Z</time>
      </trkpt>
      <trkpt lat="45.45118" lon="5.97237">
        <ele>587</ele>
        <time>2014-06-14T11:01:56Z</time>
      </trkpt>
      <trkpt lat="45.45132" lon="5.9726">
        <ele>574</ele>
        <time>2014-06-14T11:02:06Z</time>
      </trkpt>
      <trkpt lat="45.4514" lon="5.97287">
        <ele>570</ele>
        <time>2014-06-14T11:02:11Z</time>
      </trkpt>
      <trkpt lat="45.45127" lon="5.97325">
        <ele>568</ele>
        <time>2014-06-14T11:02:16Z</time>
      </trkpt>
      <trkpt lat="45.45122" lon="5.9736">
        <ele>553</ele>
        <time>2014-06-14T11:02:19Z</time>
      </trkpt>
      <trkpt lat="45.45131" lon="5.97391">
        <ele>548</ele>
        <time>2014-06-14T11:02:23Z</time>
      </trkpt>
      <trkpt lat="45.4513" lon="5.97422">
        <ele>532</ele>
        <time>2014-06-14T11:02:26Z</time>
      </trkpt>
      <trkpt lat="45.45123" lon="5.9745">
        <ele>530</ele>
        <time>2014-06-14T11:02:29Z</time>
      </trkpt>
      <trkpt lat="45.4511" lon="5.97474">
        <ele>528</ele>
        <time>2014-06-14T11:02:32Z</time>
      </trkpt>
      <trkpt lat="45.45089" lon="5.97499">
        <ele>524</ele>
        <time>2014-06-14T11:02:35Z</time>
      </trkpt>
      <trkpt lat="45.45073" lon="5.97514">
        <ele>518</ele>
        <time>2014-06-14T11:02:38Z</time>
      </trkpt>
      <trkpt lat="45.45049" lon="5.97525">
        <ele>515</ele>
        <time>2014-06-14T11:02:42Z</time>
      </trkpt>
      <trkpt lat="45.45027" lon="5.97532">
        <ele>515</ele>
        <time>2014-06-14T11:02:45Z</time>
      </trkpt>
      <trkpt lat="45.45007" lon="5.97535">
        <ele>515</ele>
        <time>2014-06-14T11:02:48Z</time>
      </trkpt>
      <trkpt lat="45.44985" lon="5.97537">
        <ele>511</ele>
        <time>2014-06-14T11:02:51Z</time>
      </trkpt>
      <trkpt lat="45.44966" lon="5.97543">
        <ele>509</ele>
        <time>2014-06-14T11:02:55Z</time>
      </trkpt>
      <trkpt lat="45.44944" lon="5.97555">
        <ele>507</ele>
        <time>2014-06-14T11:03:00Z</time>
      </trkpt>
      <trkpt lat="45.44923" lon="5.97569">
        <ele>502</ele>
        <time>2014-06-14T11:03:05Z</time>
      </trkpt>
      <trkpt lat="45.44901" lon="5.97579">
        <ele>496</ele>
        <time>2014-06-14T11:03:09Z</time>
      </trkpt>
      <trkpt lat="45.44882" lon="5.97585">
        <ele>482</ele>
        <time>2014-06-14T11:03:12Z</time>
      </trkpt>
      <trkpt lat="45.4486" lon="5.97591">
        <ele>479</ele>
        <time>2014-06-14T11:03:15Z</time>
      </trkpt>
      <trkpt lat="45.44836" lon="5.97582">
        <ele>482</ele>
        <time>2014-06-14T11:03:18Z</time>
      </trkpt>
      <trkpt lat="45.4482" lon="5.97569">
        <ele>483</ele>
        <time>2014-06-14T11:03:21Z</time>
      </trkpt>
      <trkpt lat="45.448" lon="5.97554">
        <ele>485</ele>
        <time>2014-06-14T11:03:26Z</time>
      </trkpt>
      <trkpt lat="45.44778" lon="5.97543">
        <ele>485</ele>
        <time>2014-06-14T11:03:30Z</time>
      </trkpt>
      <trkpt lat="45.44759" lon="5.9754">
        <ele>485</ele>
        <time>2014-06-14T11:03:33Z</time>
      </trkpt>
      <trkpt lat="45.44736" lon="5.97544">
        <ele>479</ele>
        <time>2014-06-14T11:03:37Z</time>
      </trkpt>
      <trkpt lat="45.44708" lon="5.97546">
        <ele>479</ele>
        <time>2014-06-14T11:03:42Z</time>
      </trkpt>
      <trkpt lat="45.44689" lon="5.97545">
        <ele>479</ele>
        <time>2014-06-14T11:03:45Z</time>
      </trkpt>
      <trkpt lat="45.44668" lon="5.97548">
        <ele>478</ele>
        <time>2014-06-14T11:03:48Z</time>
      </trkpt>
      <trkpt lat="45.44649" lon="5.97563">
        <ele>472</ele>
        <time>2014-06-14T11:03:51Z</time>
      </trkpt>
      <trkpt lat="45.44625" lon="5.97567">
        <ele>471</ele>
        <time>2014-06-14T11:03:54Z</time>
      </trkpt>
      <trkpt lat="45.44605" lon="5.97576">
        <ele>468</ele>
        <time>2014-06-14T11:03:58Z</time>
      </trkpt>
      <trkpt lat="45.44587" lon="5.97586">
        <ele>459</ele>
        <time>2014-06-14T11:04:01Z</time>
      </trkpt>
      <trkpt lat="45.44566" lon="5.97596">
        <ele>452</ele>
        <time>2014-06-14T11:04:04Z</time>
      </trkpt>
      <trkpt lat="45.44542" lon="5.97607">
        <ele>448</ele>
        <time>2014-06-14T11:04:07Z</time>
      </trkpt>
      <trkpt lat="45.44519" lon="5.97619">
        <ele>445</ele>
        <time>2014-06-14T11:04:10Z</time>
      </trkpt>
      <trkpt lat="45.44499" lon="5.97626">
        <ele>438</ele>
        <time>2014-06-14T11:04:13Z</time>
      </trkpt>
      <trkpt lat="45.4448" lon="5.9762">
        <ele>438</ele>
        <time>2014-06-14T11:04:16Z</time>
      </trkpt>
      <trkpt lat="45.44461" lon="5.97615">
        <ele>438</ele>
        <time>2014-06-14T11:04:19Z</time>
      </trkpt>
      <trkpt lat="45.44434" lon="5.97629">
        <ele>436</ele>
        <time>2014-06-14T11:04:25Z</time>
      </trkpt>
      <trkpt lat="45.44411" lon="5.97643">
        <ele>430</ele>
        <time>2014-06-14T11:04:30Z</time>
      </trkpt>
      <trkpt lat="45.4439" lon="5.97642">
        <ele>430</ele>
        <time>2014-06-14T11:04:32Z</time>
      </trkpt>
      <trkpt lat="45.44369" lon="5.97647">
        <ele>429</ele>
        <time>2014-06-14T11:04:35Z</time>
      </trkpt>
      <trkpt lat="45.44349" lon="5.97654">
        <ele>426</ele>
        <time>2014-06-14T11:04:38Z</time>
      </trkpt>
      <trkpt lat="45.44332" lon="5.97663">
        <ele>420</ele>
        <time>2014-06-14T11:04:41Z</time>
      </trkpt>
      <trkpt lat="45.44314" lon="5.97669">
        <ele>411</ele>
        <time>2014-06-14T11:04:43Z</time>
      </trkpt>
      <trkpt lat="45.44292" lon="5.97677">
        <ele>406</ele>
        <time>2014-06-14T11:04:45Z</time>
      </trkpt>
      <trkpt lat="45.44271" lon="5.97683">
        <ele>405</ele>
        <time>2014-06-14T11:04:47Z</time>
      </trkpt>
      <trkpt lat="45.44242" lon="5.97687">
        <ele>399</ele>
        <time>2014-06-14T11:04:50Z</time>
      </trkpt>
      <trkpt lat="45.4421" lon="5.97684">
        <ele>397</ele>
        <time>2014-06-14T11:04:53Z</time>
      </trkpt>
      <trkpt lat="45.44175" lon="5.97677">
        <ele>398</ele>
        <time>2014-06-14T11:04:55Z</time>
      </trkpt>
      <trkpt lat="45.44143" lon="5.97671">
        <ele>394</ele>
        <time>2014-06-14T11:04:57Z</time>
      </trkpt>
      <trkpt lat="45.44114" lon="5.97666">
        <ele>399</ele>
        <time>2014-06-14T11:04:59Z</time>
      </trkpt>
      <trkpt lat="45.4409" lon="5.97659">
        <ele>394</ele>
        <time>2014-06-14T11:05:01Z</time>
      </trkpt>
      <trkpt lat="45.44066" lon="5.97651">
        <ele>393</ele>
        <time>2014-06-14T11:05:03Z</time>
      </trkpt>
      <trkpt lat="45.44041" lon="5.97649">
        <ele>393</ele>
        <time>2014-06-14T11:05:05Z</time>
      </trkpt>
      <trkpt lat="45.44017" lon="5.97658">
        <ele>392</ele>
        <time>2014-06-14T11:05:07Z</time>
      </trkpt>
      <trkpt lat="45.43998" lon="5.97669">
        <ele>387</ele>
        <time>2014-06-14T11:05:09Z</time>
      </trkpt>
      <trkpt lat="45.43975" lon="5.97684">
        <ele>385</ele>
        <time>2014-06-14T11:05:12Z</time>
      </trkpt>
      <trkpt lat="45.43961" lon="5.97706">
        <ele>383</ele>
        <time>2014-06-14T11:05:15Z</time>
      </trkpt>
      <trkpt lat="45.43945" lon="5.97724">
        <ele>382</ele>
        <time>2014-06-14T11:05:18Z</time>
      </trkpt>
      <trkpt lat="45.43921" lon="5.97736">
        <ele>381</ele>
        <time>2014-06-14T11:05:21Z</time>
      </trkpt>
      <trkpt lat="45.43903" lon="5.97739">
        <ele>379</ele>
        <time>2014-06-14T11:05:23Z</time>
      </trkpt>
      <trkpt lat="45.43885" lon="5.97738">
        <ele>378</ele>
        <time>2014-06-14T11:05:25Z</time>
      </trkpt>
      <trkpt lat="45.43865" lon="5.97742">
        <ele>377</ele>
        <time>2014-06-14T11:05:27Z</time>
      </trkpt>
      <trkpt lat="45.43842" lon="5.97747">
        <ele>375</ele>
        <time>2014-06-14T11:05:29Z</time>
      </trkpt>
      <trkpt lat="45.43817" lon="5.97757">
        <ele>371</ele>
        <time>2014-06-14T11:05:31Z</time>
      </trkpt>
      <trkpt lat="45.43793" lon="5.97769">
        <ele>369</ele>
        <time>2014-06-14T11:05:33Z</time>
      </trkpt>
      <trkpt lat="45.4377" lon="5.9778">
        <ele>368</ele>
        <time>2014-06-14T11:05:35Z</time>
      </trkpt>
      <trkpt lat="45.43753" lon="5.97788">
        <ele>368</ele>
        <time>2014-06-14T11:05:37Z</time>
      </trkpt>
      <trkpt lat="45.43727" lon="5.97797">
        <ele>364</ele>
        <time>2014-06-14T11:05:40Z</time>
      </trkpt>
      <trkpt lat="45.43707" lon="5.97794">
        <ele>363</ele>
        <time>2014-06-14T11:05:43Z</time>
      </trkpt>
      <trkpt lat="45.43682" lon="5.97804">
        <ele>362</ele>
        <time>2014-06-14T11:05:47Z</time>
      </trkpt>
      <trkpt lat="45.43663" lon="5.9782">
        <ele>360</ele>
        <time>2014-06-14T11:05:50Z</time>
      </trkpt>
      <trkpt lat="45.43645" lon="5.97838">
        <ele>359</ele>
        <time>2014-06-14T11:05:53Z</time>
      </trkpt>
      <trkpt lat="45.43628" lon="5.97853">
        <ele>358</ele>
        <time>2014-06-14T11:05:57Z</time>
      </trkpt>
      <trkpt lat="45.43619" lon="5.97878">
        <ele>358</ele>
        <time>2014-06-14T11:06:04Z</time>
      </trkpt>
      <trkpt lat="45.43599" lon="5.97883">
        <ele>357</ele>
        <time>2014-06-14T11:06:10Z</time>
      </trkpt>
      <trkpt lat="45.43579" lon="5.97873">
        <ele>356</ele>
        <time>2014-06-14T11:06:15Z</time>
      </trkpt>
      <trkpt lat="45.4356" lon="5.97865">
        <ele>356</ele>
        <time>2014-06-14T11:06:20Z</time>
      </trkpt>
      <trkpt lat="45.43542" lon="5.97861">
        <ele>356</ele>
        <time>2014-06-14T11:06:25Z</time>
      </trkpt>
      <trkpt lat="45.4352" lon="5.97869">
        <ele>356</ele>
        <time>2014-06-14T11:06:31Z</time>
      </trkpt>
      <trkpt lat="45.435" lon="5.97868">
        <ele>357</ele>
        <time>2014-06-14T11:06:37Z</time>
      </trkpt>
      <trkpt lat="45.43499" lon="5.97842">
        <ele>358</ele>
        <time>2014-06-14T11:09:29Z</time>
      </trkpt>
      <trkpt lat="45.4348" lon="5.97847">
        <ele>357</ele>
        <time>2014-06-14T11:09:35Z</time>
      </trkpt>
      <trkpt lat="45.4346" lon="5.97847">
        <ele>358</ele>
        <time>2014-06-14T11:09:41Z</time>
      </trkpt>
      <trkpt lat="45.43448" lon="5.97867">
        <ele>357</ele>
        <time>2014-06-14T11:09:51Z</time>
      </trkpt>
      <trkpt lat="45.43451" lon="5.97893">
        <ele>356</ele>
        <time>2014-06-14T11:09:55Z</time>
      </trkpt>
      <trkpt lat="45.43453" lon="5.97925">
        <ele>353</ele>
        <time>2014-06-14T11:09:59Z</time>
      </trkpt>
      <trkpt lat="45.43453" lon="5.97952">
        <ele>352</ele>
        <time>2014-06-14T11:10:03Z</time>
      </trkpt>
      <trkpt lat="45.43447" lon="5.97977">
        <ele>352</ele>
        <time>2014-06-14T11:10:05Z</time>
      </trkpt>
      <trkpt lat="45.43438" lon="5.98002">
        <ele>349</ele>
        <time>2014-06-14T11:10:07Z</time>
      </trkpt>
      <trkpt lat="45.4343" lon="5.98027">
        <ele>349</ele>
        <time>2014-06-14T11:10:09Z</time>
      </trkpt>
      <trkpt lat="45.43423" lon="5.98051">
        <ele>348</ele>
        <time>2014-06-14T11:10:11Z</time>
      </trkpt>
      <trkpt lat="45.43416" lon="5.98077">
        <ele>346</ele>
        <time>2014-06-14T11:10:16Z</time>
      </trkpt>
      <trkpt lat="45.434" lon="5.98097">
        <ele>344</ele>
        <time>2014-06-14T11:10:21Z</time>
      </trkpt>
      <trkpt lat="45.43379" lon="5.98102">
        <ele>343</ele>
        <time>2014-06-14T11:10:30Z</time>
      </trkpt>
      <trkpt lat="45.43358" lon="5.98097">
        <ele>342</ele>
        <time>2014-06-14T11:10:36Z</time>
      </trkpt>
      <trkpt lat="45.43338" lon="5.9809">
        <ele>341</ele>
        <time>2014-06-14T11:10:41Z</time>
      </trkpt>
      <trkpt lat="45.4332" lon="5.98079">
        <ele>341</ele>
        <time>2014-06-14T11:10:47Z</time>
      </trkpt>
      <trkpt lat="45.43299" lon="5.98076">
        <ele>341</ele>
        <time>2014-06-14T11:10:56Z</time>
      </trkpt>
      <trkpt lat="45.4328" lon="5.98086">
        <ele>338</ele>
        <time>2014-06-14T11:11:01Z</time>
      </trkpt>
      <trkpt lat="45.43265" lon="5.98108">
        <ele>338</ele>
        <time>2014-06-14T11:11:06Z</time>
      </trkpt>
      <trkpt lat="45.43255" lon="5.98133">
        <ele>337</ele>
        <time>2014-06-14T11:11:10Z</time>
      </trkpt>
      <trkpt lat="45.43235" lon="5.9815">
        <ele>335</ele>
        <time>2014-06-14T11:11:14Z</time>
      </trkpt>
      <trkpt lat="45.43217" lon="5.98159">
        <ele>335</ele>
        <time>2014-06-14T11:11:18Z</time>
      </trkpt>
      <trkpt lat="45.43197" lon="5.98163">
        <ele>334</ele>
        <time>2014-06-14T11:11:22Z</time>
      </trkpt>
      <trkpt lat="45.43177" lon="5.98168">
        <ele>332</ele>
        <time>2014-06-14T11:11:26Z</time>
      </trkpt>
      <trkpt lat="45.43159" lon="5.98168">
        <ele>332</ele>
        <time>2014-06-14T11:11:29Z</time>
      </trkpt>
      <trkpt lat="45.43141" lon="5.98161">
        <ele>332</ele>
        <time>2014-06-14T11:11:35Z</time>
      </trkpt>
      <trkpt lat="45.43121" lon="5.98165">
        <ele>332</ele>
        <time>2014-06-14T11:11:45Z</time>
      </trkpt>
      <trkpt lat="45.43099" lon="5.98167">
        <ele>331</ele>
        <time>2014-06-14T11:11:49Z</time>
      </trkpt>
      <trkpt lat="45.43079" lon="5.98169">
        <ele>331</ele>
        <time>2014-06-14T11:11:53Z</time>
      </trkpt>
      <trkpt lat="45.43061" lon="5.98169">
        <ele>330</ele>
        <time>2014-06-14T11:11:57Z</time>
      </trkpt>
      <trkpt lat="45.43039" lon="5.98167">
        <ele>330</ele>
        <time>2014-06-14T11:12:01Z</time>
      </trkpt>
      <trkpt lat="45.43023" lon="5.98183">
        <ele>329</ele>
        <time>2014-06-14T11:12:05Z</time>
      </trkpt>
      <trkpt lat="45.43013" lon="5.98203">
        <ele>329</ele>
        <time>2014-06-14T11:12:10Z</time>
      </trkpt>
      <trkpt lat="45.43001" lon="5.98224">
        <ele>329</ele>
        <time>2014-06-14T11:12:14Z</time>
      </trkpt>
      <trkpt lat="45.42985" lon="5.98254">
        <ele>329</ele>
        <time>2014-06-14T11:12:20Z</time>
      </trkpt>
      <trkpt lat="45.42964" lon="5.98267">
        <ele>330</ele>
        <time>2014-06-14T11:12:28Z</time>
      </trkpt>
      <trkpt lat="45.42949" lon="5.98292">
        <ele>330</ele>
        <time>2014-06-14T11:12:32Z</time>
      </trkpt>
      <trkpt lat="45.42941" lon="5.98319">
        <ele>330</ele>
        <time>2014-06-14T11:12:36Z</time>
      </trkpt>
      <trkpt lat="45.42931" lon="5.98342">
        <ele>330</ele>
        <time>2014-06-14T11:12:42Z</time>
      </trkpt>
      <trkpt lat="45.42922" lon="5.98368">
        <ele>330</ele>
        <time>2014-06-14T11:12:48Z</time>
      </trkpt>
      <trkpt lat="45.42916" lon="5.98396">
        <ele>329</ele>
        <time>2014-06-14T11:12:59Z</time>
      </trkpt>
      <trkpt lat="45.42918" lon="5.98422">
        <ele>330</ele>
        <time>2014-06-14T11:13:23Z</time>
      </trkpt>
    </trkseg>
  </trk>
</gpx>